| time (UTC) | temp C | wind direction | speed KPH | gust KPH | rain 1hr cm | rain 24hr cm | rain mn cm | humidity % | barometer mb |
| 20260502190004 | 23 | 42 | 6.4 | 20.9 | 0.00 | 1.91 | 0.00 | 55 | 1022.8 |
| 20260502185904 | 22 | 32 | 6.4 | 20.9 | 0.00 | 1.91 | 0.00 | 55 | 1022.8 |
| 20260502185803 | 22 | 37 | 8.0 | 20.9 | 0.00 | 1.91 | 0.00 | 53 | 1022.8 |
| 20260502185704 | 22 | 30 | 8.0 | 20.9 | 0.00 | 1.91 | 0.00 | 54 | 1022.8 |
| 20260502185602 | 22 | 18 | 8.0 | 20.9 | 0.00 | 1.93 | 0.00 | 53 | 1022.8 |
| 20260502185504 | 22 | 0 | 9.7 | 20.9 | 0.00 | 1.96 | 0.00 | 53 | 1022.9 |
| 20260502185402 | 22 | 4 | 9.7 | 20.9 | 0.00 | 1.98 | 0.00 | 52 | 1022.9 |
| 20260502185305 | 22 | 21 | 9.7 | 20.9 | 0.00 | 2.03 | 0.00 | 51 | 1022.9 |
| 20260502185202 | 22 | 24 | 12.9 | 20.9 | 0.00 | 2.03 | 0.00 | 52 | 1023.0 |
| 20260502185103 | 22 | 42 | 11.3 | 20.9 | 0.00 | 2.03 | 0.00 | 52 | 1023.0 |
| 20260502185002 | 22 | 8 | 9.7 | 20.9 | 0.00 | 2.03 | 0.00 | 54 | 1023.0 |
| 20260502184904 | 22 | 58 | 9.7 | 20.9 | 0.00 | 2.03 | 0.00 | 52 | 1023.1 |
| 20260502184802 | 22 | 7 | 11.3 | 20.9 | 0.00 | 2.06 | 0.00 | 52 | 1023.0 |
| 20260502184704 | 22 | 56 | 12.9 | 20.9 | 0.00 | 2.06 | 0.00 | 54 | 1023.1 |
| 20260502184603 | 22 | 0 | 12.9 | 19.3 | 0.00 | 2.06 | 0.00 | 53 | 1023.1 |
| 20260502184503 | 22 | 10 | 12.9 | 29.0 | 0.00 | 2.06 | 0.00 | 53 | 1023.0 |
| 20260502184403 | 22 | 39 | 12.9 | 29.0 | 0.00 | 2.06 | 0.00 | 52 | 1023.1 |
| 20260502184303 | 22 | 21 | 12.9 | 29.0 | 0.00 | 2.08 | 0.00 | 52 | 1023.2 |
| 20260502184203 | 22 | 21 | 12.9 | 29.0 | 0.00 | 2.08 | 0.00 | 52 | 1023.2 |
| 20260502184037 | 22 | 21 | 12.9 | 29.0 | 0.00 | 2.11 | 0.00 | 52 | 1023.2 |
| 20260502183939 | 22 | 21 | 12.9 | 29.0 | 0.00 | 2.11 | 0.00 | 52 | 1023.2 |
| 20260502183837 | 22 | 21 | 12.9 | 29.0 | 0.00 | 2.11 | 0.00 | 52 | 1023.1 |
| 20260502183738 | 22 | 31 | 14.5 | 29.0 | 0.00 | 2.13 | 0.00 | 52 | 1023.1 |
| 20260502183636 | 22 | 65 | 16.1 | 29.0 | 0.00 | 2.13 | 0.00 | 53 | 1023.2 |
| 20260502183537 | 22 | 58 | 12.9 | 25.7 | 0.00 | 2.13 | 0.00 | 53 | 1023.1 |
| 20260502183437 | 22 | 45 | 12.9 | 22.5 | 0.00 | 2.13 | 0.00 | 51 | 1023.0 |
| 20260502183338 | 22 | 32 | 14.5 | 22.5 | 0.00 | 2.13 | 0.00 | 52 | 1023.1 |
| 20260502183237 | 22 | 27 | 14.5 | 22.5 | 0.00 | 2.13 | 0.00 | 53 | 1023.1 |
| 20260502183139 | 22 | 55 | 11.3 | 22.5 | 0.00 | 2.13 | 0.00 | 53 | 1023.0 |
| 20260502183037 | 22 | 56 | 9.7 | 17.7 | 0.00 | 2.13 | 0.00 | 52 | 1023.0 |
| 20260502182937 | 22 | 106 | 6.4 | 19.3 | 0.00 | 2.16 | 0.00 | 53 | 1023.0 |
| 20260502182837 | 22 | 35 | 4.8 | 20.9 | 0.00 | 2.16 | 0.00 | 53 | 1023.0 |
| 20260502182738 | 22 | 41 | 6.4 | 20.9 | 0.00 | 2.18 | 0.00 | 55 | 1023.1 |
| 20260502182637 | 22 | 78 | 6.4 | 20.9 | 0.00 | 2.18 | 0.00 | 53 | 1023.1 |
| 20260502182538 | 22 | 51 | 11.3 | 20.9 | 0.00 | 2.21 | 0.00 | 52 | 1023.2 |
| 20260502182437 | 22 | 51 | 11.3 | 20.9 | 0.00 | 2.24 | 0.00 | 52 | 1023.2 |
| 20260502182337 | 22 | 51 | 11.3 | 20.9 | 0.00 | 2.26 | 0.00 | 52 | 1023.1 |
| 20260502182238 | 22 | 51 | 11.3 | 20.9 | 0.00 | 2.31 | 0.00 | 52 | 1023.0 |
| 20260502182136 | 22 | 55 | 11.3 | 20.9 | 0.00 | 2.34 | 0.00 | 52 | 1023.2 |
| 20260502182037 | 22 | 49 | 12.9 | 20.9 | 0.00 | 2.36 | 0.00 | 53 | 1023.2 |
| 20260502181937 | 22 | 23 | 12.9 | 20.9 | 0.00 | 2.39 | 0.00 | 52 | 1023.1 |
| 20260502181836 | 22 | 41 | 9.7 | 22.5 | 0.00 | 2.41 | 0.00 | 52 | 1023.1 |
| 20260502181737 | 22 | 38 | 9.7 | 22.5 | 0.00 | 2.44 | 0.00 | 52 | 1023.1 |
| 20260502181636 | 22 | 58 | 6.4 | 22.5 | 0.00 | 2.44 | 0.00 | 52 | 1023.2 |
| 20260502181537 | 22 | 103 | 6.4 | 22.5 | 0.00 | 2.44 | 0.00 | 53 | 1023.2 |
| 20260502181436 | 22 | 63 | 6.4 | 22.5 | 0.00 | 2.44 | 0.00 | 53 | 1023.3 |
| 20260502181336 | 22 | 55 | 9.7 | 22.5 | 0.00 | 2.44 | 0.00 | 52 | 1023.3 |
| 20260502181237 | 22 | 11 | 12.9 | 22.5 | 0.00 | 2.44 | 0.00 | 54 | 1023.4 |
| 20260502181137 | 22 | 66 | 9.7 | 22.5 | 0.00 | 2.46 | 0.00 | 54 | 1023.4 |
| 20260502181037 | 22 | 44 | 9.7 | 22.5 | 0.00 | 2.46 | 0.00 | 51 | 1023.4 |
| 20260502180939 | 22 | 59 | 9.7 | 22.5 | 0.00 | 2.46 | 0.00 | 54 | 1023.4 |
| 20260502180838 | 22 | 72 | 6.4 | 19.3 | 0.00 | 2.46 | 0.00 | 53 | 1023.4 |
| 20260502180737 | 22 | 59 | 6.4 | 24.1 | 0.00 | 2.49 | 0.00 | 55 | 1023.4 |
| 20260502180638 | 22 | 59 | 8.0 | 24.1 | 0.00 | 2.49 | 0.00 | 54 | 1023.5 |
| 20260502180538 | 22 | 34 | 9.7 | 24.1 | 0.00 | 2.49 | 0.00 | 53 | 1023.5 |
| 20260502180436 | 22 | 71 | 11.3 | 24.1 | 0.00 | 2.49 | 0.00 | 53 | 1023.5 |
| 20260502180338 | 22 | 62 | 11.3 | 24.1 | 0.00 | 2.51 | 0.00 | 54 | 1023.5 |
| 20260502180236 | 22 | 68 | 11.3 | 24.1 | 0.00 | 2.54 | 0.00 | 52 | 1023.5 |
| 20260502180135 | 22 | 92 | 11.3 | 24.1 | 0.00 | 2.54 | 0.00 | 52 | 1023.5 |
| 20260502170437 | 21 | 65 | 9.7 | 22.5 | 0.00 | 3.07 | 0.00 | 59 | 1023.7 |
| 20260502170334 | 21 | 61 | 6.4 | 19.3 | 0.00 | 3.07 | 0.00 | 59 | 1023.7 |
| 20260502170234 | 21 | 58 | 9.7 | 22.5 | 0.00 | 3.07 | 0.00 | 58 | 1023.7 |
| 20260502170134 | 21 | 47 | 11.3 | 22.5 | 0.00 | 3.07 | 0.00 | 56 | 1023.8 |
| 20260502164334 | 20 | 1 | 9.7 | 22.5 | 0.00 | 3.12 | 0.00 | 62 | 1023.7 |
| 20260502164234 | 20 | 59 | 11.3 | 24.1 | 0.00 | 3.12 | 0.00 | 62 | 1023.8 |
| 20260502164135 | 20 | 35 | 16.1 | 25.7 | 0.00 | 3.12 | 0.00 | 64 | 1023.7 |
| 20260502164034 | 20 | 31 | 9.7 | 25.7 | 0.00 | 3.12 | 0.00 | 64 | 1023.8 |
| 20260502163933 | 20 | 31 | 9.7 | 25.7 | 0.00 | 3.12 | 0.00 | 64 | 1023.8 |
| 20260502163834 | 20 | 31 | 9.7 | 25.7 | 0.00 | 3.15 | 0.00 | 64 | 1023.7 |
| 20260502163734 | 20 | 30 | 9.7 | 25.7 | 0.00 | 3.15 | 0.00 | 64 | 1023.8 |
| 20260502163635 | 20 | 10 | 12.9 | 25.7 | 0.00 | 3.15 | 0.00 | 65 | 1023.8 |
| 20260502163534 | 20 | 1 | 14.5 | 25.7 | 0.00 | 3.15 | 0.00 | 63 | 1023.8 |
| 20260502163434 | 20 | 20 | 16.1 | 25.7 | 0.00 | 3.15 | 0.00 | 63 | 1023.9 |
| 20260502163333 | 20 | 7 | 16.1 | 25.7 | 0.00 | 3.17 | 0.00 | 63 | 1023.8 |
| 20260502163234 | 20 | 0 | 12.9 | 25.7 | 0.00 | 3.17 | 0.00 | 65 | 1023.8 |
| 20260502163134 | 20 | 10 | 9.7 | 20.9 | 0.00 | 3.17 | 0.00 | 66 | 1023.8 |
| 20260502163033 | 20 | 54 | 12.9 | 20.9 | 0.00 | 3.20 | 0.00 | 65 | 1023.8 |
| 20260502162935 | 20 | 61 | 11.3 | 20.9 | 0.00 | 3.20 | 0.00 | 65 | 1023.8 |
| 20260502162834 | 20 | 44 | 9.7 | 20.9 | 0.00 | 3.23 | 0.00 | 63 | 1023.8 |
| 20260502162734 | 20 | 21 | 11.3 | 22.5 | 0.00 | 3.25 | 0.00 | 63 | 1023.8 |
| 20260502162634 | 20 | 3 | 12.9 | 22.5 | 0.00 | 3.28 | 0.00 | 64 | 1023.8 |
| 20260502162533 | 20 | 1 | 16.1 | 22.5 | 0.00 | 3.30 | 0.00 | 64 | 1023.8 |
| 20260502162433 | 20 | 52 | 12.9 | 22.5 | 0.00 | 3.33 | 0.00 | 65 | 1023.9 |
| 20260502162334 | 20 | 1 | 9.7 | 22.5 | 0.00 | 3.35 | 0.00 | 66 | 1023.9 |
| 20260502162234 | 20 | 6 | 12.9 | 22.5 | 0.00 | 3.35 | 0.00 | 67 | 1023.8 |
| 20260502162133 | 20 | 39 | 12.9 | 22.5 | 0.00 | 3.40 | 0.00 | 66 | 1023.9 |
| 20260502162035 | 20 | 16 | 12.9 | 22.5 | 0.00 | 3.43 | 0.00 | 67 | 1023.8 |
| 20260502161935 | 20 | 42 | 14.5 | 22.5 | 0.00 | 3.43 | 0.00 | 68 | 1023.8 |
| 20260502161833 | 20 | 20 | 12.9 | 22.5 | 0.00 | 3.45 | 0.00 | 68 | 1023.8 |
| 20260502161733 | 20 | 58 | 11.3 | 22.5 | 0.00 | 3.45 | 0.00 | 68 | 1023.8 |
| 20260502161633 | 20 | 17 | 11.3 | 22.5 | 0.00 | 3.51 | 0.00 | 68 | 1023.8 |
| 20260502161535 | 20 | 38 | 12.9 | 22.5 | 0.00 | 3.51 | 0.00 | 68 | 1023.8 |
| 20260502161434 | 19 | 21 | 12.9 | 22.5 | 0.00 | 3.51 | 0.00 | 69 | 1023.8 |
| 20260502161333 | 19 | 27 | 12.9 | 22.5 | 0.00 | 3.51 | 0.00 | 69 | 1023.7 |
| 20260502161234 | 19 | 51 | 12.9 | 22.5 | 0.00 | 3.51 | 0.00 | 68 | 1023.7 |
| 20260502161133 | 19 | 31 | 12.9 | 22.5 | 0.00 | 3.51 | 0.00 | 68 | 1023.7 |
| 20260502161033 | 19 | 0 | 12.9 | 22.5 | 0.00 | 3.51 | 0.00 | 69 | 1023.6 |
| 20260502160932 | 19 | 4 | 14.5 | 24.1 | 0.00 | 3.53 | 0.00 | 69 | 1023.6 |
| 20260502160831 | 19 | 0 | 8.0 | 24.1 | 0.00 | 3.53 | 0.00 | 69 | 1023.6 |
| 20260502160733 | 19 | 1 | 11.3 | 24.1 | 0.00 | 3.53 | 0.00 | 69 | 1023.5 |
| 20260502160632 | 19 | 1 | 11.3 | 24.1 | 0.00 | 3.53 | 0.00 | 69 | 1023.6 |
| 20260502160533 | 19 | 1 | 11.3 | 24.1 | 0.00 | 3.56 | 0.00 | 69 | 1023.6 |
| 20260502160411 | 19 | 0 | 11.3 | 24.1 | 0.00 | 3.56 | 0.00 | 69 | 1023.6 |
| 20260502160311 | 19 | 20 | 11.3 | 24.1 | 0.00 | 3.58 | 0.00 | 69 | 1023.6 |
| 20260502160204 | 19 | 0 | 11.3 | 24.1 | 0.00 | 3.58 | 0.00 | 71 | 1023.6 |
| 20260502160104 | 19 | 0 | 16.1 | 29.0 | 0.00 | 3.58 | 0.00 | 70 | 1023.6 |
| 20260502152305 | 18 | 34 | 11.3 | 24.1 | 0.00 | 3.61 | 0.00 | 75 | 1023.5 |
| 20260502152203 | 18 | 37 | 11.3 | 24.1 | 0.00 | 3.61 | 0.00 | 75 | 1023.6 |
| 20260502152102 | 18 | 56 | 11.3 | 24.1 | 0.00 | 3.61 | 0.00 | 75 | 1023.6 |
| 20260502152002 | 18 | 49 | 11.3 | 22.5 | 0.00 | 3.61 | 0.00 | 75 | 1023.6 |
| 20260502151903 | 18 | 14 | 11.3 | 22.5 | 0.00 | 3.61 | 0.00 | 75 | 1023.6 |
| 20260502151758 | 18 | 0 | 11.3 | 22.5 | 0.00 | 3.61 | 0.00 | 75 | 1023.7 |
| 20260502151659 | 18 | 47 | 9.7 | 22.5 | 0.00 | 3.61 | 0.00 | 74 | 1023.6 |
| 20260502151552 | 18 | 38 | 12.9 | 22.5 | 0.00 | 3.61 | 0.00 | 74 | 1023.7 |
| 20260502151450 | 18 | 56 | 11.3 | 25.7 | 0.00 | 3.61 | 0.00 | 74 | 1023.7 |
| 20260502151349 | 18 | 48 | 9.7 | 25.7 | 0.00 | 3.61 | 0.00 | 74 | 1023.6 |
| 20260502151248 | 18 | 62 | 9.7 | 25.7 | 0.00 | 3.61 | 0.00 | 74 | 1023.5 |
| 20260502151145 | 18 | 65 | 9.7 | 25.7 | 0.00 | 3.61 | 0.00 | 75 | 1023.6 |
| 20260502151041 | 18 | 59 | 12.9 | 25.7 | 0.00 | 3.61 | 0.00 | 75 | 1023.6 |
| 20260502150939 | 18 | 54 | 12.9 | 25.7 | 0.00 | 3.61 | 0.00 | 74 | 1023.5 |
| 20260502150833 | 18 | 34 | 14.5 | 25.7 | 0.00 | 3.61 | 0.00 | 75 | 1023.6 |
| 20260502150732 | 18 | 23 | 14.5 | 25.7 | 0.00 | 3.61 | 0.00 | 75 | 1023.6 |
| 20260502150629 | 18 | 0 | 12.9 | 25.7 | 0.00 | 3.61 | 0.00 | 75 | 1023.6 |
| 20260502150528 | 18 | 51 | 14.5 | 25.7 | 0.00 | 3.61 | 0.00 | 75 | 1023.7 |
| 20260502150426 | 18 | 1 | 16.1 | 25.7 | 0.00 | 3.61 | 0.00 | 75 | 1023.6 |
| 20260502150326 | 18 | 358 | 11.3 | 24.1 | 0.00 | 3.61 | 0.00 | 76 | 1023.7 |
| 20260502150223 | 17 | 18 | 9.7 | 24.1 | 0.00 | 3.61 | 0.00 | 76 | 1023.6 |
| 20260502150123 | 17 | 24 | 12.9 | 24.1 | 0.00 | 3.61 | 0.00 | 76 | 1023.6 |
| 20260502130730 | 13 | 8 | 8.0 | 14.5 | 0.00 | 4.01 | 0.00 | 92 | 1022.5 |
| 20260502130631 | 13 | 8 | 8.0 | 14.5 | 0.00 | 4.01 | 0.00 | 92 | 1022.5 |
| 20260502130530 | 13 | 8 | 8.0 | 14.5 | 0.00 | 4.01 | 0.00 | 92 | 1022.4 |
| 20260502130404 | 13 | 17 | 9.7 | 14.5 | 0.00 | 4.01 | 0.00 | 93 | 1022.4 |
| 20260502130303 | 13 | 21 | 9.7 | 14.5 | 0.00 | 4.01 | 0.00 | 93 | 1022.4 |
| 20260502130202 | 13 | 8 | 8.0 | 14.5 | 0.00 | 4.01 | 0.00 | 93 | 1022.4 |
| 20260502123802 | 12 | 48 | 6.4 | 9.7 | 0.00 | 4.04 | 0.00 | 93 | 1022.1 |
| 20260502123702 | 12 | 24 | 6.4 | 8.0 | 0.00 | 4.04 | 0.00 | 93 | 1022.0 |
| 20260502123603 | 12 | 10 | 6.4 | 9.7 | 0.00 | 4.04 | 0.00 | 93 | 1022.1 |
| 20260502123502 | 12 | 8 | 6.4 | 9.7 | 0.00 | 4.04 | 0.00 | 93 | 1022.0 |
| 20260502123402 | 12 | 0 | 4.8 | 9.7 | 0.00 | 4.04 | 0.00 | 93 | 1022.0 |
| 20260502123303 | 12 | 0 | 3.2 | 9.7 | 0.00 | 4.04 | 0.00 | 93 | 1022.0 |
| 20260502123202 | 12 | 10 | 3.2 | 9.7 | 0.00 | 4.06 | 0.00 | 93 | 1022.0 |
| 20260502123103 | 12 | 8 | 4.8 | 9.7 | 0.00 | 4.06 | 0.00 | 93 | 1022.0 |
| 20260502123004 | 12 | 10 | 6.4 | 9.7 | 0.00 | 4.06 | 0.00 | 93 | 1022.0 |
| 20260502122904 | 12 | 7 | 6.4 | 11.3 | 0.00 | 4.06 | 0.00 | 93 | 1021.9 |
| 20260502122802 | 12 | 358 | 6.4 | 14.5 | 0.00 | 4.06 | 0.00 | 93 | 1022.0 |
| 20260502122702 | 12 | 8 | 6.4 | 14.5 | 0.00 | 4.06 | 0.00 | 93 | 1021.9 |
| 20260502122604 | 12 | 0 | 6.4 | 14.5 | 0.00 | 4.06 | 0.00 | 93 | 1021.9 |
| 20260502122502 | 12 | 0 | 6.4 | 14.5 | 0.00 | 4.06 | 0.00 | 93 | 1021.8 |
| 20260502122402 | 12 | 8 | 4.8 | 14.5 | 0.00 | 4.06 | 0.00 | 93 | 1021.8 |
| 20260502122306 | 12 | 18 | 4.8 | 14.5 | 0.00 | 4.06 | 0.00 | 93 | 1021.8 |
| 20260502122203 | 12 | 20 | 6.4 | 14.5 | 0.00 | 4.06 | 0.00 | 93 | 1021.8 |
| 20260502122102 | 12 | 6 | 6.4 | 14.5 | 0.00 | 4.06 | 0.00 | 93 | 1021.7 |
| 20260502122004 | 12 | 7 | 8.0 | 14.5 | 0.00 | 4.06 | 0.00 | 93 | 1021.7 |
| 20260502121904 | 12 | 0 | 8.0 | 14.5 | 0.00 | 4.06 | 0.00 | 93 | 1021.8 |
| 20260502121803 | 12 | 0 | 6.4 | 8.0 | 0.00 | 4.06 | 0.00 | 93 | 1021.9 |
| 20260502121703 | 12 | 353 | 6.4 | 8.0 | 0.00 | 4.06 | 0.00 | 93 | 1021.8 |
| 20260502121603 | 12 | 0 | 4.8 | 8.0 | 0.00 | 4.06 | 0.00 | 93 | 1021.8 |
| 20260502121503 | 12 | 0 | 4.8 | 8.0 | 0.00 | 4.06 | 0.00 | 93 | 1021.7 |
| 20260502121403 | 12 | 41 | 3.2 | 6.4 | 0.00 | 4.06 | 0.00 | 93 | 1021.8 |
| 20260502121303 | 12 | 41 | 4.8 | 6.4 | 0.00 | 4.06 | 0.00 | 93 | 1021.8 |
| 20260502121204 | 12 | 41 | 3.2 | 6.4 | 0.00 | 4.06 | 0.00 | 93 | 1021.9 |
| 20260502121103 | 12 | 41 | 3.2 | 6.4 | 0.00 | 4.06 | 0.00 | 93 | 1021.8 |
| 20260502121002 | 12 | 0 | 3.2 | 6.4 | 0.00 | 4.06 | 0.00 | 93 | 1021.8 |
| 20260502120904 | 12 | 0 | 3.2 | 4.8 | 0.00 | 4.06 | 0.00 | 93 | 1021.8 |
| 20260502120802 | 12 | 0 | 3.2 | 4.8 | 0.00 | 4.06 | 0.00 | 93 | 1021.8 |
| 20260502120701 | 12 | 0 | 3.2 | 4.8 | 0.00 | 4.06 | 0.00 | 93 | 1021.8 |
| 20260502120602 | 11 | 0 | 1.6 | 3.2 | 0.00 | 4.06 | 0.00 | 93 | 1021.8 |
| 20260502120505 | 11 | 0 | 1.6 | 3.2 | 0.00 | 4.06 | 0.00 | 93 | 1021.8 |
| 20260502120404 | 11 | 0 | 1.6 | 3.2 | 0.00 | 4.06 | 0.00 | 93 | 1021.8 |
| 20260502120302 | 11 | 0 | 1.6 | 4.8 | 0.00 | 4.06 | 0.00 | 93 | 1021.7 |
| 20260502120203 | 11 | 0 | 0.0 | 4.8 | 0.00 | 4.06 | 0.00 | 93 | 1021.7 |
| 20260502115904 | 11 | 0 | 0.0 | 4.8 | 0.00 | 4.06 | 0.00 | 93 | 1021.7 |
| 20260502115803 | 11 | 0 | 0.0 | 4.8 | 0.00 | 4.06 | 0.00 | 93 | 1021.7 |
| 20260502115703 | 11 | 0 | 0.0 | 4.8 | 0.00 | 4.06 | 0.00 | 93 | 1021.6 |
| 20260502115602 | 11 | 0 | 1.6 | 4.8 | 0.00 | 4.06 | 0.00 | 93 | 1021.7 |
| 20260502115504 | 11 | 0 | 1.6 | 4.8 | 0.00 | 4.06 | 0.00 | 93 | 1021.6 |
| 20260502115402 | 11 | 0 | 3.2 | 4.8 | 0.00 | 4.06 | 0.00 | 93 | 1021.6 |
| 20260502115306 | 11 | 354 | 1.6 | 6.4 | 0.00 | 4.06 | 0.00 | 93 | 1021.6 |
| 20260502115203 | 11 | 354 | 1.6 | 6.4 | 0.00 | 4.06 | 0.00 | 93 | 1021.6 |
| 20260502115104 | 11 | 354 | 1.6 | 6.4 | 0.00 | 4.06 | 0.00 | 93 | 1021.5 |
| 20260502115004 | 11 | 354 | 1.6 | 6.4 | 0.00 | 4.06 | 0.00 | 93 | 1021.6 |
| 20260502114833 | 11 | 354 | 1.6 | 9.7 | 0.00 | 4.06 | 0.00 | 93 | 1021.5 |
| 20260502114731 | 11 | 354 | 3.2 | 9.7 | 0.00 | 4.06 | 0.00 | 93 | 1021.5 |
| 20260502114631 | 11 | 354 | 3.2 | 9.7 | 0.00 | 4.06 | 0.00 | 93 | 1021.5 |
| 20260502114531 | 11 | 355 | 3.2 | 9.7 | 0.00 | 4.06 | 0.00 | 93 | 1021.5 |
| 20260502114431 | 11 | 355 | 1.6 | 9.7 | 0.00 | 4.06 | 0.00 | 93 | 1021.5 |
| 20260502114332 | 11 | 0 | 1.6 | 9.7 | 0.00 | 4.06 | 0.00 | 93 | 1021.3 |
| 20260502114231 | 11 | 0 | 3.2 | 9.7 | 0.00 | 4.06 | 0.00 | 93 | 1021.3 |
| 20260502114131 | 11 | 0 | 3.2 | 9.7 | 0.00 | 4.06 | 0.00 | 93 | 1021.4 |
| 20260502114032 | 11 | 0 | 4.8 | 9.7 | 0.00 | 4.06 | 0.00 | 93 | 1021.3 |
| 20260502113930 | 11 | 355 | 4.8 | 9.7 | 0.00 | 4.06 | 0.00 | 93 | 1021.3 |
| 20260502113831 | 11 | 0 | 6.4 | 8.0 | 0.00 | 4.06 | 0.00 | 92 | 1021.3 |
| 20260502113731 | 11 | 0 | 3.2 | 8.0 | 0.00 | 4.06 | 0.00 | 92 | 1021.3 |
| 20260502113631 | 11 | 0 | 3.2 | 8.0 | 0.00 | 4.06 | 0.00 | 92 | 1021.3 |
| 20260502113531 | 11 | 0 | 3.2 | 14.5 | 0.00 | 4.06 | 0.00 | 92 | 1021.3 |
| 20260502113431 | 11 | 0 | 3.2 | 14.5 | 0.00 | 4.06 | 0.00 | 92 | 1021.3 |
| 20260502113331 | 11 | 0 | 1.6 | 14.5 | 0.00 | 4.06 | 0.00 | 92 | 1021.3 |
| 20260502113231 | 11 | 0 | 1.6 | 14.5 | 0.00 | 4.06 | 0.00 | 92 | 1021.3 |
| 20260502113131 | 11 | 0 | 3.2 | 14.5 | 0.00 | 4.06 | 0.00 | 92 | 1021.2 |
| 20260502113033 | 11 | 357 | 3.2 | 14.5 | 0.00 | 4.06 | 0.00 | 92 | 1021.2 |
| 20260502112932 | 11 | 357 | 3.2 | 14.5 | 0.00 | 4.06 | 0.00 | 92 | 1021.2 |
| 20260502112831 | 11 | 357 | 3.2 | 14.5 | 0.00 | 4.06 | 0.00 | 92 | 1021.3 |
| 20260502112732 | 12 | 23 | 4.8 | 14.5 | 0.00 | 4.06 | 0.00 | 92 | 1021.2 |
| 20260502112632 | 12 | 323 | 4.8 | 14.5 | 0.00 | 4.06 | 0.00 | 92 | 1021.2 |
| 20260502112532 | 12 | 357 | 3.2 | 8.0 | 0.00 | 4.06 | 0.00 | 92 | 1021.1 |
| 20260502112431 | 12 | 0 | 3.2 | 8.0 | 0.00 | 4.06 | 0.00 | 92 | 1021.2 |
| 20260502112332 | 12 | 8 | 3.2 | 8.0 | 0.00 | 4.06 | 0.00 | 92 | 1021.2 |
| 20260502112231 | 12 | 348 | 3.2 | 8.0 | 0.00 | 4.06 | 0.00 | 92 | 1021.1 |
| 20260502112131 | 12 | 347 | 3.2 | 8.0 | 0.00 | 4.06 | 0.00 | 92 | 1021.1 |
| 20260502112031 | 12 | 0 | 3.2 | 9.7 | 0.00 | 4.06 | 0.00 | 92 | 1021.1 |
| 20260502111933 | 12 | 0 | 4.8 | 9.7 | 0.00 | 4.06 | 0.00 | 92 | 1021.2 |
| 20260502111828 | 12 | 0 | 3.2 | 9.7 | 0.00 | 4.06 | 0.00 | 92 | 1021.1 |
| 20260502111726 | 12 | 0 | 1.6 | 9.7 | 0.00 | 4.06 | 0.00 | 92 | 1021.2 |
| 20260502111627 | 12 | 0 | 0.0 | 9.7 | 0.00 | 4.06 | 0.00 | 92 | 1021.1 |
| 20260502111527 | 12 | 0 | 0.0 | 9.7 | 0.00 | 4.06 | 0.00 | 92 | 1021.1 |
| 20260502111428 | 12 | 0 | 1.6 | 9.7 | 0.00 | 4.06 | 0.00 | 92 | 1021.0 |
| 20260502111327 | 12 | 0 | 4.8 | 9.7 | 0.00 | 4.06 | 0.00 | 92 | 1021.0 |
| 20260502111226 | 12 | 0 | 6.4 | 9.7 | 0.00 | 4.06 | 0.00 | 92 | 1021.1 |
| 20260502111127 | 12 | 18 | 6.4 | 9.7 | 0.00 | 4.06 | 0.00 | 92 | 1021.1 |
| 20260502111027 | 12 | 0 | 6.4 | 9.7 | 0.00 | 4.09 | 0.00 | 92 | 1021.1 |
| 20260502110927 | 12 | 3 | 4.8 | 9.7 | 0.00 | 4.09 | 0.00 | 92 | 1021.1 |
| 20260502110828 | 12 | 10 | 4.8 | 9.7 | 0.00 | 4.09 | 0.00 | 92 | 1021.1 |
| 20260502110727 | 12 | 10 | 6.4 | 9.7 | 0.00 | 4.09 | 0.00 | 92 | 1021.1 |
| 20260502110629 | 12 | 10 | 6.4 | 9.7 | 0.00 | 4.09 | 0.00 | 92 | 1021.1 |
| 20260502110527 | 12 | 10 | 4.8 | 9.7 | 0.00 | 4.11 | 0.00 | 92 | 1021.0 |
| 20260502110427 | 12 | 0 | 4.8 | 9.7 | 0.00 | 4.11 | 0.00 | 92 | 1021.1 |
| 20260502110327 | 12 | 0 | 4.8 | 9.7 | 0.00 | 4.11 | 0.00 | 92 | 1021.1 |
| 20260502110227 | 12 | 0 | 6.4 | 9.7 | 0.00 | 4.11 | 0.00 | 92 | 1021.0 |
| 20260502110127 | 12 | 3 | 6.4 | 9.7 | 0.00 | 4.11 | 0.00 | 92 | 1021.0 |
| 20260502110027 | 12 | 7 | 6.4 | 9.7 | 0.00 | 4.11 | 0.00 | 92 | 1021.0 |
| 20260502105926 | 12 | 37 | 4.8 | 9.7 | 0.00 | 4.11 | 0.00 | 92 | 1021.0 |
| 20260502105827 | 12 | 24 | 3.2 | 9.7 | 0.00 | 4.11 | 0.00 | 92 | 1020.9 |
| 20260502105727 | 12 | 16 | 1.6 | 9.7 | 0.00 | 4.11 | 0.00 | 92 | 1020.9 |
| 20260502105628 | 12 | 14 | 4.8 | 9.7 | 0.00 | 4.11 | 0.00 | 92 | 1020.9 |
| 20260502105527 | 12 | 14 | 4.8 | 9.7 | 0.00 | 4.11 | 0.00 | 92 | 1020.9 |
| 20260502105428 | 12 | 14 | 4.8 | 9.7 | 0.00 | 4.11 | 0.00 | 92 | 1020.9 |
| 20260502105327 | 12 | 14 | 4.8 | 9.7 | 0.00 | 4.11 | 0.00 | 92 | 1020.9 |
| 20260502105227 | 12 | 7 | 4.8 | 9.7 | 0.00 | 4.11 | 0.00 | 92 | 1020.9 |
| 20260502105126 | 12 | 44 | 4.8 | 9.7 | 0.00 | 4.14 | 0.00 | 92 | 1020.8 |
| 20260502105025 | 12 | 45 | 6.4 | 9.7 | 0.00 | 4.14 | 0.00 | 92 | 1020.8 |
| 20260502104927 | 12 | 11 | 6.4 | 9.7 | 0.00 | 4.14 | 0.00 | 92 | 1020.8 |
| 20260502104826 | 12 | 0 | 4.8 | 9.7 | 0.00 | 4.14 | 0.00 | 92 | 1020.8 |
| 20260502104725 | 12 | 0 | 4.8 | 9.7 | 0.00 | 4.14 | 0.00 | 92 | 1020.9 |
| 20260502104627 | 12 | 6 | 6.4 | 14.5 | 0.00 | 4.14 | 0.00 | 92 | 1020.9 |
| 20260502104526 | 12 | 4 | 8.0 | 14.5 | 0.00 | 4.14 | 0.00 | 92 | 1020.8 |
| 20260502104426 | 12 | 10 | 6.4 | 14.5 | 0.00 | 4.14 | 0.00 | 92 | 1020.9 |
| 20260502104326 | 12 | 11 | 4.8 | 14.5 | 0.00 | 4.14 | 0.00 | 92 | 1020.9 |
| 20260502104227 | 12 | 0 | 3.2 | 14.5 | 0.00 | 4.14 | 0.00 | 92 | 1020.8 |
| 20260502104125 | 12 | 0 | 1.6 | 14.5 | 0.00 | 4.14 | 0.00 | 92 | 1020.9 |
| 20260502104026 | 12 | 0 | 4.8 | 14.5 | 0.00 | 4.14 | 0.00 | 92 | 1020.9 |
| 20260502103927 | 12 | 0 | 6.4 | 14.5 | 0.00 | 4.14 | 0.00 | 92 | 1020.8 |
| 20260502103826 | 12 | 0 | 8.0 | 14.5 | 0.00 | 4.14 | 0.00 | 92 | 1020.9 |
| 20260502103726 | 12 | 11 | 8.0 | 14.5 | 0.00 | 4.17 | 0.00 | 92 | 1020.8 |
| 20260502103628 | 12 | 0 | 6.4 | 14.5 | 0.00 | 4.17 | 0.00 | 92 | 1020.8 |
| 20260502103527 | 12 | 16 | 6.4 | 14.5 | 0.00 | 4.17 | 0.00 | 92 | 1020.8 |
| 20260502103426 | 12 | 0 | 8.0 | 14.5 | 0.00 | 4.17 | 0.00 | 92 | 1020.8 |
| 20260502103325 | 12 | 4 | 8.0 | 14.5 | 0.00 | 4.17 | 0.00 | 92 | 1020.8 |
| 20260502103226 | 12 | 357 | 6.4 | 14.5 | 0.00 | 4.17 | 0.00 | 92 | 1020.8 |
| 20260502103125 | 12 | 1 | 6.4 | 14.5 | 0.00 | 4.17 | 0.00 | 92 | 1020.8 |
| 20260502103025 | 12 | 8 | 8.0 | 14.5 | 0.00 | 4.17 | 0.00 | 92 | 1020.7 |
| 20260502102926 | 12 | 10 | 9.7 | 14.5 | 0.00 | 4.17 | 0.00 | 92 | 1020.8 |
| 20260502102826 | 12 | 13 | 8.0 | 11.3 | 0.00 | 4.17 | 0.00 | 92 | 1020.7 |
| 20260502102726 | 12 | 4 | 4.8 | 9.7 | 0.00 | 4.17 | 0.00 | 92 | 1020.7 |
| 20260502102626 | 12 | 11 | 4.8 | 9.7 | 0.00 | 4.17 | 0.00 | 92 | 1020.7 |
| 20260502102526 | 12 | 18 | 3.2 | 9.7 | 0.00 | 4.17 | 0.00 | 92 | 1020.8 |
| 20260502102427 | 12 | 11 | 3.2 | 11.3 | 0.00 | 4.17 | 0.00 | 92 | 1020.7 |
| 20260502102325 | 12 | 11 | 4.8 | 11.3 | 0.00 | 4.17 | 0.00 | 92 | 1020.6 |
| 20260502102225 | 12 | 17 | 4.8 | 14.5 | 0.00 | 4.17 | 0.00 | 92 | 1020.7 |
| 20260502102126 | 12 | 0 | 3.2 | 14.5 | 0.00 | 4.19 | 0.00 | 92 | 1020.7 |
| 20260502102025 | 12 | 0 | 3.2 | 14.5 | 0.00 | 4.19 | 0.00 | 92 | 1020.6 |
| 20260502101926 | 12 | 0 | 3.2 | 14.5 | 0.00 | 4.19 | 0.00 | 92 | 1020.7 |
| 20260502101826 | 12 | 0 | 3.2 | 14.5 | 0.00 | 4.19 | 0.00 | 92 | 1020.6 |
| 20260502101725 | 12 | 334 | 4.8 | 14.5 | 0.00 | 4.19 | 0.00 | 92 | 1020.6 |
| 20260502101626 | 12 | 333 | 8.0 | 16.1 | 0.00 | 4.19 | 0.00 | 92 | 1020.6 |
| 20260502101525 | 12 | 0 | 8.0 | 16.1 | 0.00 | 4.19 | 0.00 | 92 | 1020.6 |
| 20260502101427 | 12 | 13 | 8.0 | 16.1 | 0.00 | 4.19 | 0.00 | 92 | 1020.5 |
| 20260502101328 | 12 | 39 | 8.0 | 16.1 | 0.00 | 4.19 | 0.00 | 92 | 1020.5 |
| 20260502101226 | 12 | 358 | 8.0 | 16.1 | 0.00 | 4.19 | 0.00 | 92 | 1020.5 |
| 20260502101125 | 12 | 338 | 8.0 | 16.1 | 0.00 | 4.19 | 0.00 | 92 | 1020.4 |
| 20260502101026 | 12 | 0 | 6.4 | 16.1 | 0.00 | 4.19 | 0.00 | 92 | 1020.3 |
| 20260502100925 | 12 | 0 | 8.0 | 16.1 | 0.00 | 4.19 | 0.00 | 92 | 1020.3 |
| 20260502100825 | 12 | 0 | 9.7 | 16.1 | 0.00 | 4.19 | 0.00 | 92 | 1020.2 |
| 20260502100726 | 12 | 0 | 9.7 | 16.1 | 0.00 | 4.19 | 0.00 | 92 | 1020.3 |
| 20260502100626 | 12 | 7 | 8.0 | 16.1 | 0.00 | 4.22 | 0.00 | 92 | 1020.2 |
| 20260502100525 | 12 | 0 | 6.4 | 9.7 | 0.00 | 4.24 | 0.00 | 92 | 1020.2 |
| 20260502100427 | 12 | 1 | 6.4 | 11.3 | 0.00 | 4.27 | 0.00 | 92 | 1020.1 |
| 20260502100325 | 12 | 1 | 6.4 | 11.3 | 0.00 | 4.29 | 0.00 | 92 | 1020.1 |
| 20260502100226 | 12 | 6 | 6.4 | 11.3 | 0.00 | 4.32 | 0.00 | 92 | 1020.1 |
| 20260502100126 | 12 | 4 | 4.8 | 11.3 | 0.00 | 4.32 | 0.00 | 92 | 1020.1 |
| 20260502091525 | 12 | 49 | 0.0 | 4.8 | 0.00 | 5.21 | 0.00 | 91 | 1019.5 |
| 20260502091423 | 12 | 49 | 0.0 | 4.8 | 0.00 | 5.21 | 0.00 | 91 | 1019.5 |
| 20260502091325 | 12 | 49 | 0.0 | 4.8 | 0.00 | 5.21 | 0.00 | 91 | 1019.5 |
| 20260502091220 | 12 | 49 | 0.0 | 4.8 | 0.00 | 5.21 | 0.00 | 91 | 1019.5 |
| 20260502091118 | 12 | 49 | 1.6 | 4.8 | 0.00 | 5.23 | 0.00 | 91 | 1019.4 |
| 20260502091015 | 12 | 49 | 3.2 | 6.4 | 0.00 | 5.23 | 0.00 | 91 | 1019.4 |
| 20260502090916 | 12 | 49 | 3.2 | 6.4 | 0.00 | 5.23 | 0.00 | 91 | 1019.4 |
| 20260502090815 | 12 | 49 | 1.6 | 8.0 | 0.00 | 5.23 | 0.00 | 91 | 1019.4 |
| 20260502090713 | 12 | 30 | 1.6 | 8.0 | 0.00 | 5.23 | 0.00 | 91 | 1019.3 |
| 20260502090612 | 12 | 30 | 1.6 | 8.0 | 0.00 | 5.23 | 0.00 | 91 | 1019.3 |
| 20260502090510 | 12 | 30 | 3.2 | 8.0 | 0.00 | 5.23 | 0.00 | 91 | 1019.4 |
| 20260502090409 | 12 | 30 | 1.6 | 9.7 | 0.00 | 5.23 | 0.00 | 91 | 1019.3 |
| 20260502090307 | 12 | 30 | 3.2 | 11.3 | 0.00 | 5.23 | 0.00 | 91 | 1019.3 |
| 20260502090205 | 12 | 30 | 3.2 | 11.3 | 0.00 | 5.23 | 0.00 | 91 | 1019.2 |
| 20260502090106 | 12 | 28 | 4.8 | 11.3 | 0.00 | 5.26 | 0.00 | 91 | 1019.2 |
| 20260502071522 | 12 | 75 | 6.4 | 17.7 | 0.00 | 6.07 | 0.00 | 93 | 1019.2 |
| 20260502071423 | 12 | 55 | 8.0 | 17.7 | 0.00 | 6.07 | 0.00 | 93 | 1019.1 |
| 20260502071321 | 12 | 69 | 8.0 | 17.7 | 0.00 | 6.07 | 0.00 | 93 | 1019.1 |
| 20260502071222 | 12 | 34 | 6.4 | 17.7 | 0.00 | 6.07 | 0.00 | 93 | 1019.1 |
| 20260502071122 | 12 | 58 | 8.0 | 17.7 | 0.00 | 6.07 | 0.00 | 93 | 1019.2 |
| 20260502071021 | 12 | 62 | 8.0 | 17.7 | 0.00 | 6.07 | 0.00 | 93 | 1019.2 |
| 20260502070920 | 12 | 44 | 8.0 | 17.7 | 0.00 | 6.07 | 0.00 | 93 | 1019.2 |
| 20260502070819 | 12 | 42 | 9.7 | 17.7 | 0.00 | 6.07 | 0.00 | 93 | 1019.2 |
| 20260502070709 | 12 | 41 | 8.0 | 25.7 | 0.00 | 6.07 | 0.00 | 93 | 1019.3 |
| 20260502070606 | 12 | 34 | 6.4 | 25.7 | 0.00 | 6.07 | 0.00 | 93 | 1019.3 |
| 20260502070506 | 12 | 51 | 6.4 | 25.7 | 0.00 | 6.07 | 0.00 | 93 | 1019.3 |
| 20260502070404 | 12 | 68 | 6.4 | 25.7 | 0.00 | 6.07 | 0.00 | 93 | 1019.3 |
| 20260502070304 | 12 | 35 | 6.4 | 25.7 | 0.00 | 6.07 | 0.00 | 93 | 1019.2 |
| 20260502070205 | 12 | 41 | 6.4 | 25.7 | 0.00 | 6.07 | 0.00 | 93 | 1019.2 |
| 20260502070104 | 12 | 55 | 8.0 | 25.7 | 0.00 | 6.07 | 0.00 | 93 | 1019.2 |
| 20260502070002 | 12 | 17 | 9.7 | 25.7 | 0.00 | 6.07 | 0.00 | 93 | 1019.2 |
| 20260502065902 | 12 | 47 | 12.9 | 25.7 | 0.00 | 6.07 | 0.00 | 93 | 1019.2 |
| 20260502065803 | 12 | 32 | 14.5 | 25.7 | 0.00 | 6.07 | 0.00 | 93 | 1019.2 |
| 20260502065704 | 12 | 3 | 9.7 | 22.5 | 0.00 | 6.07 | 0.00 | 93 | 1019.1 |
| 20260502065604 | 12 | 32 | 9.7 | 17.7 | 0.00 | 6.07 | 0.00 | 93 | 1019.2 |
| 20260502065502 | 12 | 45 | 9.7 | 17.7 | 0.00 | 6.07 | 0.00 | 93 | 1019.2 |
| 20260502065404 | 12 | 45 | 8.0 | 17.7 | 0.00 | 6.07 | 0.00 | 93 | 1019.1 |
| 20260502065306 | 12 | 56 | 8.0 | 17.7 | 0.00 | 6.07 | 0.00 | 93 | 1019.1 |
| 20260502065205 | 12 | 54 | 8.0 | 17.7 | 0.00 | 6.07 | 0.00 | 93 | 1019.2 |
| 20260502065104 | 12 | 16 | 6.4 | 17.7 | 0.00 | 6.07 | 0.00 | 93 | 1019.1 |
| 20260502065002 | 12 | 52 | 8.0 | 17.7 | 0.00 | 6.07 | 0.00 | 93 | 1019.2 |
| 20260502064903 | 12 | 66 | 9.7 | 17.7 | 0.00 | 6.07 | 0.00 | 93 | 1019.1 |
| 20260502064803 | 12 | 61 | 9.7 | 16.1 | 0.00 | 6.07 | 0.00 | 93 | 1019.1 |
| 20260502064703 | 12 | 47 | 8.0 | 22.5 | 0.00 | 6.07 | 0.00 | 93 | 1019.0 |
| 20260502064605 | 12 | 35 | 6.4 | 22.5 | 0.00 | 6.07 | 0.00 | 93 | 1019.0 |
| 20260502064503 | 12 | 8 | 6.4 | 22.5 | 0.00 | 6.07 | 0.00 | 93 | 1019.0 |
| 20260502064403 | 12 | 17 | 6.4 | 22.5 | 0.00 | 6.07 | 0.00 | 93 | 1019.0 |
| 20260502064303 | 12 | 32 | 6.4 | 22.5 | 0.00 | 6.07 | 0.00 | 93 | 1019.0 |
| 20260502064203 | 12 | 47 | 6.4 | 22.5 | 0.00 | 6.07 | 0.00 | 93 | 1018.9 |
| 20260502064104 | 12 | 21 | 8.0 | 22.5 | 0.00 | 6.07 | 0.00 | 93 | 1019.0 |
| 20260502064005 | 12 | 48 | 8.0 | 22.5 | 0.00 | 6.07 | 0.00 | 93 | 1018.9 |
| 20260502063904 | 12 | 48 | 9.7 | 22.5 | 0.00 | 6.07 | 0.00 | 93 | 1019.0 |
| 20260502063802 | 12 | 28 | 12.9 | 22.5 | 0.00 | 6.07 | 0.00 | 93 | 1018.9 |
| 20260502063703 | 12 | 34 | 9.7 | 20.9 | 0.00 | 6.07 | 0.00 | 93 | 1018.9 |
| 20260502063602 | 12 | 48 | 8.0 | 20.9 | 0.00 | 6.07 | 0.00 | 94 | 1019.0 |
| 20260502063503 | 12 | 25 | 6.4 | 20.9 | 0.00 | 6.07 | 0.00 | 94 | 1019.0 |
| 20260502063404 | 12 | 8 | 6.4 | 20.9 | 0.00 | 6.07 | 0.00 | 94 | 1019.0 |
| 20260502063301 | 12 | 41 | 9.7 | 20.9 | 0.00 | 6.07 | 0.00 | 94 | 1019.0 |
| 20260502063202 | 12 | 39 | 11.3 | 20.9 | 0.00 | 6.07 | 0.00 | 94 | 1019.0 |
| 20260502063103 | 12 | 24 | 11.3 | 20.9 | 0.00 | 6.07 | 0.00 | 94 | 1019.0 |
| 20260502063006 | 12 | 39 | 11.3 | 20.9 | 0.00 | 6.07 | 0.00 | 94 | 1019.0 |
| 20260502062902 | 12 | 11 | 11.3 | 20.9 | 0.00 | 6.07 | 0.00 | 94 | 1019.0 |
| 20260502062804 | 13 | 47 | 9.7 | 20.9 | 0.00 | 6.07 | 0.00 | 94 | 1019.1 |
| 20260502062705 | 12 | 16 | 9.7 | 20.9 | 0.00 | 6.07 | 0.00 | 94 | 1019.0 |
| 20260502062603 | 12 | 17 | 9.7 | 20.9 | 0.00 | 6.07 | 0.00 | 94 | 1019.1 |
| 20260502062503 | 12 | 25 | 9.7 | 20.9 | 0.00 | 6.07 | 0.00 | 94 | 1019.0 |
| 20260502062402 | 12 | 0 | 11.3 | 20.9 | 0.00 | 6.07 | 0.00 | 94 | 1019.0 |
| 20260502062305 | 12 | 55 | 11.3 | 20.9 | 0.00 | 6.07 | 0.00 | 94 | 1019.0 |
| 20260502062203 | 13 | 7 | 11.3 | 20.9 | 0.00 | 6.07 | 0.00 | 94 | 1018.9 |
| 20260502062103 | 13 | 0 | 11.3 | 20.9 | 0.00 | 6.07 | 0.00 | 94 | 1019.0 |
| 20260502062003 | 13 | 61 | 12.9 | 20.9 | 0.00 | 6.07 | 0.00 | 94 | 1018.9 |
| 20260502061903 | 13 | 10 | 9.7 | 20.9 | 0.00 | 6.07 | 0.00 | 94 | 1019.1 |
| 20260502061801 | 13 | 0 | 8.0 | 17.7 | 0.00 | 6.07 | 0.00 | 94 | 1019.0 |
| 20260502061703 | 13 | 25 | 6.4 | 17.7 | 0.00 | 6.07 | 0.00 | 94 | 1019.0 |
| 20260502061602 | 13 | 47 | 4.8 | 17.7 | 0.00 | 6.10 | 0.00 | 94 | 1019.0 |
| 20260502061504 | 13 | 39 | 6.4 | 17.7 | 0.00 | 6.10 | 0.00 | 94 | 1019.0 |
| 20260502061404 | 13 | 38 | 9.7 | 17.7 | 0.00 | 6.10 | 0.00 | 94 | 1019.0 |
| 20260502061303 | 13 | 45 | 9.7 | 17.7 | 0.00 | 6.10 | 0.00 | 94 | 1018.9 |
| 20260502061203 | 13 | 75 | 8.0 | 16.1 | 0.00 | 6.10 | 0.00 | 94 | 1018.9 |
| 20260502061102 | 13 | 30 | 9.7 | 16.1 | 0.00 | 6.10 | 0.00 | 94 | 1018.9 |
| 20260502061004 | 13 | 39 | 8.0 | 16.1 | 0.00 | 6.10 | 0.00 | 94 | 1018.9 |
| 20260502060903 | 13 | 61 | 9.7 | 17.7 | 0.00 | 6.10 | 0.00 | 94 | 1018.9 |
| 20260502060803 | 13 | 38 | 9.7 | 19.3 | 0.00 | 6.12 | 0.00 | 94 | 1018.9 |
| 20260502060703 | 13 | 0 | 8.0 | 20.9 | 0.00 | 6.12 | 0.00 | 94 | 1018.9 |
| 20260502060604 | 13 | 24 | 6.4 | 20.9 | 0.00 | 6.12 | 0.00 | 94 | 1018.9 |
| 20260502060458 | 13 | 30 | 6.4 | 20.9 | 0.00 | 6.12 | 0.00 | 94 | 1019.0 |
| 20260502060356 | 13 | 44 | 6.4 | 22.5 | 0.00 | 6.12 | 0.00 | 94 | 1018.9 |
| 20260502060254 | 13 | 8 | 8.0 | 22.5 | 0.00 | 6.12 | 0.00 | 94 | 1018.9 |
| 20260502060154 | 13 | 32 | 8.0 | 22.5 | 0.00 | 6.15 | 0.00 | 94 | 1018.9 |
| 20260502060052 | 13 | 49 | 9.7 | 22.5 | 0.00 | 6.15 | 0.00 | 94 | 1018.9 |
| 20260502055944 | 13 | 44 | 12.9 | 22.5 | 0.00 | 6.15 | 0.00 | 94 | 1018.9 |
| 20260502055842 | 13 | 47 | 12.9 | 22.5 | 0.00 | 6.15 | 0.00 | 94 | 1018.9 |
| 20260502055742 | 13 | 18 | 11.3 | 22.5 | 0.00 | 6.15 | 0.00 | 94 | 1019.0 |
| 20260502055641 | 13 | 48 | 9.7 | 24.1 | 0.00 | 6.15 | 0.00 | 94 | 1018.9 |
| 20260502055537 | 13 | 58 | 9.7 | 24.1 | 0.00 | 6.15 | 0.00 | 94 | 1018.8 |
| 20260502055435 | 13 | 61 | 12.9 | 24.1 | 0.00 | 6.15 | 0.00 | 94 | 1018.9 |
| 20260502055335 | 13 | 52 | 9.7 | 24.1 | 0.00 | 6.15 | 0.00 | 94 | 1018.9 |
| 20260502055231 | 13 | 41 | 9.7 | 24.1 | 0.00 | 6.15 | 0.00 | 94 | 1018.9 |
| 20260502055133 | 13 | 131 | 12.9 | 24.1 | 0.00 | 6.15 | 0.00 | 94 | 1018.9 |
| 20260502055033 | 13 | 45 | 9.7 | 24.1 | 0.00 | 6.15 | 0.00 | 94 | 1018.9 |
| 20260502054931 | 13 | 7 | 11.3 | 24.1 | 0.00 | 6.15 | 0.00 | 94 | 1018.9 |
| 20260502054832 | 13 | 45 | 12.9 | 24.1 | 0.00 | 6.15 | 0.00 | 94 | 1018.8 |
| 20260502054733 | 13 | 27 | 12.9 | 24.1 | 0.00 | 6.17 | 0.00 | 94 | 1018.8 |
| 20260502054631 | 13 | 42 | 12.9 | 22.5 | 0.00 | 6.17 | 0.00 | 94 | 1018.8 |
| 20260502054534 | 13 | 25 | 14.5 | 22.5 | 0.00 | 6.17 | 0.00 | 94 | 1018.9 |
| 20260502054433 | 13 | 23 | 16.1 | 22.5 | 0.00 | 6.17 | 0.00 | 94 | 1018.8 |
| 20260502054332 | 13 | 35 | 12.9 | 22.5 | 0.00 | 6.20 | 0.00 | 95 | 1018.8 |
| 20260502054232 | 13 | 58 | 8.0 | 17.7 | 0.00 | 6.20 | 0.00 | 95 | 1018.8 |
| 20260502054132 | 13 | 27 | 6.4 | 20.9 | 0.00 | 6.22 | 0.00 | 95 | 1018.8 |
| 20260502054032 | 13 | 32 | 6.4 | 20.9 | 0.00 | 6.25 | 0.00 | 95 | 1018.9 |
| 20260502053931 | 13 | 61 | 8.0 | 20.9 | 0.00 | 6.27 | 0.00 | 95 | 1018.9 |
| 20260502053832 | 13 | 58 | 6.4 | 20.9 | 0.00 | 6.32 | 0.00 | 95 | 1018.9 |
| 20260502053731 | 13 | 23 | 8.0 | 20.9 | 0.00 | 6.40 | 0.00 | 95 | 1018.9 |
| 20260502053632 | 13 | 35 | 9.7 | 20.9 | 0.00 | 6.40 | 0.00 | 95 | 1018.8 |
| 20260502053533 | 13 | 24 | 9.7 | 20.9 | 0.00 | 6.45 | 0.00 | 95 | 1018.8 |
| 20260502053432 | 13 | 23 | 11.3 | 20.9 | 0.00 | 6.50 | 0.00 | 95 | 1018.8 |
| 20260502053331 | 13 | 54 | 12.9 | 20.9 | 0.00 | 6.50 | 0.00 | 95 | 1018.9 |
| 20260502053231 | 13 | 39 | 11.3 | 20.9 | 0.00 | 6.50 | 0.00 | 95 | 1018.9 |
| 20260502053132 | 13 | 34 | 11.3 | 16.1 | 0.00 | 6.50 | 0.00 | 95 | 1018.9 |
| 20260502053032 | 13 | 38 | 9.7 | 16.1 | 0.00 | 6.50 | 0.00 | 95 | 1018.9 |
| 20260502052932 | 13 | 38 | 8.0 | 22.5 | 0.00 | 6.50 | 0.00 | 95 | 1018.9 |
| 20260502052832 | 13 | 55 | 9.7 | 22.5 | 0.00 | 6.53 | 0.00 | 95 | 1018.9 |
| 20260502052732 | 13 | 59 | 9.7 | 22.5 | 0.00 | 6.53 | 0.00 | 95 | 1018.9 |
| 20260502052627 | 13 | 24 | 9.7 | 22.5 | 0.00 | 6.53 | 0.00 | 95 | 1019.0 |
| 20260502052526 | 13 | 3 | 11.3 | 22.5 | 0.00 | 6.53 | 0.00 | 95 | 1019.0 |
| 20260502052422 | 13 | 21 | 8.0 | 22.5 | 0.00 | 6.55 | 0.00 | 95 | 1019.0 |
| 20260502052321 | 13 | 48 | 8.0 | 22.5 | 0.00 | 6.55 | 0.00 | 95 | 1019.0 |
| 20260502052220 | 13 | 49 | 9.7 | 22.5 | 0.00 | 6.55 | 0.00 | 95 | 1019.0 |
| 20260502052120 | 13 | 41 | 12.9 | 22.5 | 0.00 | 6.55 | 0.00 | 95 | 1018.9 |
| 20260502052010 | 13 | 55 | 11.3 | 22.5 | 0.00 | 6.60 | 0.00 | 95 | 1018.9 |
| 20260502051909 | 13 | 20 | 8.0 | 19.3 | 0.00 | 6.60 | 0.00 | 95 | 1018.9 |
| 20260502051806 | 13 | 0 | 8.0 | 19.3 | 0.00 | 6.60 | 0.00 | 95 | 1018.9 |
| 20260502051704 | 13 | 47 | 11.3 | 19.3 | 0.00 | 6.60 | 0.00 | 95 | 1018.9 |
| 20260502051604 | 13 | 48 | 11.3 | 19.3 | 0.00 | 6.63 | 0.00 | 95 | 1018.9 |
| 20260502051503 | 13 | 48 | 9.7 | 19.3 | 0.00 | 6.65 | 0.00 | 95 | 1018.9 |
| 20260502051402 | 13 | 16 | 9.7 | 19.3 | 0.00 | 6.68 | 0.00 | 95 | 1018.8 |
| 20260502051302 | 13 | 32 | 9.7 | 19.3 | 0.00 | 6.71 | 0.00 | 95 | 1018.9 |
| 20260502051202 | 13 | 61 | 9.7 | 20.9 | 0.00 | 6.76 | 0.00 | 95 | 1018.8 |
| 20260502051103 | 13 | 62 | 8.0 | 20.9 | 0.00 | 6.81 | 0.00 | 95 | 1018.9 |
| 20260502051002 | 13 | 37 | 6.4 | 20.9 | 0.00 | 6.81 | 0.00 | 95 | 1018.8 |
| 20260502050903 | 13 | 52 | 8.0 | 20.9 | 0.00 | 6.83 | 0.00 | 95 | 1018.8 |
| 20260502050803 | 13 | 3 | 9.7 | 20.9 | 0.00 | 6.83 | 0.00 | 95 | 1018.9 |
| 20260502050704 | 13 | 3 | 9.7 | 20.9 | 0.00 | 6.83 | 0.00 | 95 | 1018.9 |
| 20260502050604 | 13 | 3 | 9.7 | 20.9 | 0.00 | 6.83 | 0.00 | 95 | 1018.9 |
| 20260502050505 | 13 | 18 | 9.7 | 20.9 | 0.00 | 6.83 | 0.00 | 95 | 1018.8 |
| 20260502050402 | 13 | 55 | 9.7 | 20.9 | 0.00 | 6.83 | 0.00 | 95 | 1018.8 |
| 20260502050304 | 13 | 51 | 12.9 | 20.9 | 0.00 | 6.83 | 0.00 | 95 | 1018.9 |
| 20260502050204 | 13 | 25 | 11.3 | 19.3 | 0.00 | 6.83 | 0.00 | 95 | 1018.8 |
| 20260502050003 | 13 | 28 | 6.4 | 19.3 | 0.00 | 6.83 | 0.00 | 95 | 1018.8 |
| 20260502045902 | 13 | 63 | 8.0 | 19.3 | 0.00 | 6.83 | 6.81 | 95 | 1018.9 |
| 20260502045804 | 13 | 25 | 9.7 | 19.3 | 0.00 | 6.83 | 6.81 | 95 | 1018.9 |
| 20260502045703 | 13 | 38 | 12.9 | 19.3 | 0.00 | 6.83 | 6.81 | 95 | 1019.0 |
| 20260502045602 | 13 | 59 | 12.9 | 19.3 | 0.00 | 6.83 | 6.81 | 95 | 1018.9 |
| 20260502045503 | 13 | 23 | 11.3 | 19.3 | 0.00 | 6.83 | 6.81 | 95 | 1019.0 |
| 20260502045404 | 13 | 49 | 6.4 | 19.3 | 0.00 | 6.83 | 6.81 | 95 | 1018.9 |
| 20260502045305 | 13 | 41 | 6.4 | 19.3 | 0.00 | 6.83 | 6.81 | 96 | 1019.0 |
| 20260502045202 | 13 | 39 | 6.4 | 19.3 | 0.00 | 6.83 | 6.81 | 95 | 1019.0 |
| 20260502045103 | 13 | 62 | 6.4 | 19.3 | 0.00 | 6.83 | 6.81 | 95 | 1019.0 |
| 20260502045003 | 13 | 35 | 8.0 | 22.5 | 0.00 | 6.83 | 6.81 | 95 | 1019.1 |
| 20260502044902 | 13 | 51 | 11.3 | 22.5 | 0.00 | 6.83 | 6.81 | 95 | 1019.1 |
| 20260502044804 | 13 | 27 | 12.9 | 22.5 | 0.00 | 6.83 | 6.81 | 95 | 1019.0 |
| 20260502044702 | 13 | 16 | 11.3 | 22.5 | 0.00 | 6.83 | 6.81 | 95 | 1019.1 |
| 20260502044603 | 13 | 7 | 8.0 | 22.5 | 0.00 | 6.83 | 6.81 | 96 | 1019.1 |
| 20260502044503 | 13 | 52 | 6.4 | 22.5 | 0.00 | 6.83 | 6.81 | 96 | 1019.1 |
| 20260502044403 | 13 | 16 | 9.7 | 22.5 | 0.00 | 6.83 | 6.81 | 96 | 1019.0 |
| 20260502044304 | 13 | 21 | 9.7 | 22.5 | 0.00 | 6.83 | 6.81 | 96 | 1019.1 |
| 20260502044203 | 13 | 55 | 11.3 | 22.5 | 0.00 | 6.83 | 6.81 | 96 | 1019.0 |
| 20260502044104 | 13 | 58 | 12.9 | 22.5 | 0.00 | 6.83 | 6.81 | 96 | 1019.1 |
| 20260502044004 | 13 | 62 | 14.5 | 22.5 | 0.00 | 6.83 | 6.81 | 96 | 1019.1 |
| 20260502043903 | 13 | 8 | 16.1 | 22.5 | 0.00 | 6.83 | 6.81 | 96 | 1019.0 |
| 20260502043805 | 13 | 0 | 14.5 | 22.5 | 0.00 | 6.83 | 6.81 | 96 | 1019.1 |
| 20260502043704 | 13 | 0 | 14.5 | 22.5 | 0.00 | 6.83 | 6.81 | 96 | 1019.0 |
| 20260502043603 | 13 | 38 | 12.9 | 22.5 | 0.00 | 6.83 | 6.81 | 96 | 1019.0 |
| 20260502043503 | 13 | 1 | 11.3 | 22.5 | 0.00 | 6.83 | 6.81 | 96 | 1019.0 |
| 20260502043403 | 13 | 63 | 11.3 | 22.5 | 0.00 | 6.83 | 6.81 | 96 | 1019.0 |
| 20260502043302 | 13 | 35 | 9.7 | 22.5 | 0.00 | 6.83 | 6.81 | 96 | 1019.0 |
| 20260502043202 | 13 | 71 | 9.7 | 22.5 | 0.00 | 6.83 | 6.81 | 96 | 1018.9 |
| 20260502043103 | 13 | 58 | 14.5 | 22.5 | 0.00 | 6.83 | 6.81 | 96 | 1019.0 |
| 20260502043003 | 13 | 45 | 14.5 | 22.5 | 0.00 | 6.83 | 6.81 | 96 | 1018.9 |
| 20260502042902 | 13 | 34 | 11.3 | 22.5 | 0.00 | 6.83 | 6.81 | 96 | 1018.9 |
| 20260502042802 | 13 | 23 | 8.0 | 22.5 | 0.00 | 6.83 | 6.81 | 96 | 1018.9 |
| 20260502042703 | 13 | 51 | 8.0 | 22.5 | 0.00 | 6.83 | 6.81 | 96 | 1018.9 |
| 20260502042602 | 13 | 27 | 9.7 | 22.5 | 0.00 | 6.83 | 6.81 | 96 | 1018.9 |
| 20260502042503 | 13 | 48 | 12.9 | 24.1 | 0.00 | 6.83 | 6.81 | 96 | 1018.9 |
| 20260502042403 | 13 | 24 | 12.9 | 24.1 | 0.00 | 6.83 | 6.81 | 96 | 1018.9 |
| 20260502042306 | 13 | 56 | 12.9 | 24.1 | 0.00 | 6.83 | 6.81 | 96 | 1018.8 |
| 20260502042205 | 13 | 8 | 12.9 | 24.1 | 0.00 | 6.83 | 6.81 | 96 | 1018.9 |
| 20260502042103 | 13 | 32 | 9.7 | 24.1 | 0.00 | 6.83 | 6.81 | 96 | 1018.9 |
| 20260502042004 | 13 | 48 | 9.7 | 24.1 | 0.00 | 6.83 | 6.81 | 96 | 1018.9 |
| 20260502041903 | 13 | 25 | 9.7 | 24.1 | 0.00 | 6.83 | 6.81 | 96 | 1018.9 |
| 20260502041801 | 13 | 55 | 9.7 | 24.1 | 0.00 | 6.83 | 6.81 | 96 | 1018.9 |
| 20260502041703 | 13 | 13 | 12.9 | 24.1 | 0.00 | 6.83 | 6.81 | 96 | 1019.0 |
| 20260502041602 | 13 | 25 | 14.5 | 24.1 | 0.00 | 6.83 | 6.81 | 96 | 1019.0 |
| 20260502041503 | 13 | 0 | 11.3 | 22.5 | 0.00 | 6.83 | 6.81 | 96 | 1019.0 |
| 20260502041403 | 13 | 11 | 8.0 | 25.7 | 0.00 | 6.83 | 6.81 | 96 | 1019.0 |
| 20260502041303 | 13 | 47 | 8.0 | 25.7 | 0.00 | 6.83 | 6.81 | 96 | 1019.0 |
| 20260502041203 | 13 | 34 | 9.7 | 25.7 | 0.03 | 6.83 | 6.81 | 96 | 1019.1 |
| 20260502041101 | 13 | 21 | 9.7 | 25.7 | 0.03 | 6.83 | 6.81 | 96 | 1019.1 |
| 20260502041003 | 13 | 51 | 11.3 | 25.7 | 0.03 | 6.83 | 6.81 | 96 | 1019.0 |
| 20260502040903 | 13 | 27 | 11.3 | 25.7 | 0.03 | 6.83 | 6.81 | 96 | 1019.0 |
| 20260502040802 | 13 | 14 | 9.7 | 25.7 | 0.03 | 6.83 | 6.81 | 96 | 1019.0 |
| 20260502040703 | 13 | 10 | 12.9 | 25.7 | 0.03 | 6.83 | 6.81 | 96 | 1019.0 |
| 20260502040603 | 13 | 7 | 14.5 | 25.7 | 0.03 | 6.83 | 6.81 | 96 | 1019.0 |
| 20260502040504 | 13 | 27 | 14.5 | 25.7 | 0.03 | 6.83 | 6.81 | 96 | 1018.9 |
| 20260502040403 | 13 | 351 | 14.5 | 24.1 | 0.03 | 6.83 | 6.81 | 96 | 1018.9 |
| 20260502040303 | 13 | 37 | 14.5 | 24.1 | 0.03 | 6.83 | 6.81 | 96 | 1019.0 |
| 20260502040202 | 13 | 0 | 12.9 | 24.1 | 0.03 | 6.83 | 6.81 | 96 | 1018.9 |
| 20260502040104 | -17 | 42 | 11.3 | 20.9 | 0.03 | 6.83 | 6.81 | 1019.0 | |
| 20260502040003 | -17 | 0.0 | 20.9 | 0.03 | 6.81 | 6.83 | 1018.9 | ||
| 20260502035904 | -17 | 0.0 | 20.9 | 0.03 | 6.81 | 6.83 | 1018.9 | ||
| 20260502035804 | 13 | 34 | 11.3 | 20.9 | 0.03 | 6.81 | 6.83 | 96 | 1018.8 |
| 20260502035704 | 13 | 34 | 11.3 | 20.9 | 0.03 | 6.81 | 6.83 | 96 | 1018.8 |
| 20260502035603 | 13 | 34 | 11.3 | 20.9 | 0.03 | 6.81 | 6.83 | 96 | 1018.7 |
| 20260502035504 | 13 | 34 | 11.3 | 20.9 | 0.03 | 6.81 | 6.83 | 96 | 1018.8 |
| 20260502035403 | 13 | 34 | 11.3 | 20.9 | 0.03 | 6.81 | 6.83 | 96 | 1018.7 |
| 20260502035306 | 13 | 48 | 11.3 | 20.9 | 0.03 | 6.81 | 6.83 | 96 | 1018.6 |
| 20260502035203 | 13 | 47 | 11.3 | 20.9 | 0.03 | 6.81 | 6.83 | 96 | 1018.6 |
| 20260502035102 | 13 | 6 | 9.7 | 19.3 | 0.03 | 6.81 | 6.83 | 96 | 1018.6 |
| 20260502035003 | 13 | 56 | 9.7 | 19.3 | 0.03 | 6.81 | 6.83 | 96 | 1018.6 |
| 20260502034903 | 13 | 347 | 9.7 | 19.3 | 0.03 | 6.81 | 6.83 | 96 | 1018.6 |
| 20260502034803 | 13 | 350 | 11.3 | 19.3 | 0.03 | 6.81 | 6.83 | 96 | 1018.5 |
| 20260502034703 | 13 | 25 | 11.3 | 19.3 | 0.03 | 6.81 | 6.83 | 96 | 1018.5 |
| 20260502034603 | 13 | 11 | 14.5 | 19.3 | 0.03 | 6.81 | 6.83 | 96 | 1018.5 |
| 20260502034503 | 13 | 32 | 14.5 | 19.3 | 0.03 | 6.81 | 6.83 | 96 | 1018.6 |
| 20260502034404 | 13 | 18 | 11.3 | 14.5 | 0.03 | 6.81 | 6.83 | 96 | 1018.6 |
| 20260502034304 | 13 | 3 | 9.7 | 14.5 | 0.03 | 6.81 | 6.83 | 96 | 1018.5 |
| 20260502034203 | 13 | 3 | 9.7 | 16.1 | 0.03 | 6.81 | 6.83 | 96 | 1018.5 |
| 20260502034103 | 13 | 3 | 9.7 | 19.3 | 0.03 | 6.81 | 6.83 | 96 | 1018.5 |
| 20260502034004 | 13 | 3 | 9.7 | 19.3 | 0.03 | 6.81 | 6.83 | 96 | 1018.5 |
| 20260502033903 | 13 | 3 | 9.7 | 19.3 | 0.03 | 6.81 | 6.83 | 96 | 1018.4 |
| 20260502033802 | 13 | 35 | 9.7 | 19.3 | 0.03 | 6.81 | 6.83 | 96 | 1018.5 |
| 20260502033702 | 13 | 17 | 9.7 | 19.3 | 0.03 | 6.81 | 6.83 | 96 | 1018.4 |
| 20260502033604 | 13 | 38 | 8.0 | 19.3 | 0.03 | 6.83 | 6.83 | 96 | 1018.4 |
| 20260502033502 | 13 | 11 | 8.0 | 19.3 | 0.05 | 6.83 | 6.83 | 96 | 1018.4 |
| 20260502033403 | 13 | 38 | 9.7 | 20.9 | 0.05 | 6.83 | 6.83 | 96 | 1018.4 |
| 20260502033304 | 13 | 38 | 11.3 | 20.9 | 0.05 | 6.83 | 6.83 | 96 | 1018.5 |
| 20260502033202 | 13 | 14 | 9.7 | 20.9 | 0.05 | 6.83 | 6.83 | 96 | 1018.5 |
| 20260502033102 | 13 | 6 | 8.0 | 20.9 | 0.05 | 6.83 | 6.83 | 96 | 1018.4 |
| 20260502033003 | 13 | 10 | 8.0 | 20.9 | 0.05 | 6.83 | 6.83 | 96 | 1018.4 |
| 20260502032903 | 13 | 28 | 8.0 | 20.9 | 0.05 | 6.83 | 6.83 | 96 | 1018.3 |
| 20260502032802 | 13 | 58 | 9.7 | 20.9 | 0.05 | 6.83 | 6.83 | 96 | 1018.2 |
| 20260502032702 | 13 | 25 | 11.3 | 20.9 | 0.05 | 6.83 | 6.83 | 96 | 1018.1 |
| 20260502032603 | 13 | 45 | 11.3 | 24.1 | 0.05 | 6.83 | 6.83 | 96 | 1018.1 |
| 20260502032502 | 13 | 39 | 11.3 | 24.1 | 0.05 | 6.83 | 6.83 | 96 | 1018.1 |
| 20260502032403 | 13 | 39 | 9.7 | 24.1 | 0.05 | 6.86 | 6.83 | 96 | 1018.1 |
| 20260502032306 | 13 | 34 | 11.3 | 32.2 | 0.05 | 6.86 | 6.83 | 96 | 1018.0 |
| 20260502032203 | 13 | 20 | 9.7 | 32.2 | 0.05 | 6.86 | 6.83 | 96 | 1018.0 |
| 20260502032105 | 13 | 1 | 9.7 | 32.2 | 0.05 | 6.86 | 6.83 | 96 | 1018.0 |
| 20260502032004 | 13 | 38 | 8.0 | 32.2 | 0.08 | 6.86 | 6.83 | 96 | 1018.0 |
| 20260502031903 | 13 | 30 | 11.3 | 32.2 | 0.08 | 6.86 | 6.83 | 96 | 1017.9 |
| 20260502031803 | 13 | 28 | 11.3 | 32.2 | 0.08 | 6.86 | 6.83 | 96 | 1017.8 |
| 20260502031703 | 13 | 38 | 9.7 | 32.2 | 0.08 | 6.86 | 6.83 | 96 | 1017.9 |
| 20260502031605 | 13 | 20 | 9.7 | 32.2 | 0.08 | 6.86 | 6.83 | 96 | 1017.7 |
| 20260502031503 | 13 | 16 | 12.9 | 32.2 | 0.08 | 6.86 | 6.83 | 96 | 1017.7 |
| 20260502031404 | 13 | 32 | 14.5 | 32.2 | 0.08 | 6.86 | 6.83 | 96 | 1017.7 |
| 20260502031303 | 13 | 25 | 9.7 | 22.5 | 0.08 | 6.86 | 6.81 | 96 | 1017.7 |
| 20260502031203 | 13 | 31 | 8.0 | 22.5 | 0.05 | 6.86 | 6.81 | 96 | 1017.6 |
| 20260502031101 | 13 | 49 | 9.7 | 22.5 | 0.05 | 6.86 | 6.81 | 96 | 1017.7 |
| 20260502030935 | 13 | 41 | 9.7 | 22.5 | 0.05 | 6.86 | 6.81 | 96 | 1017.7 |
| 20260502030832 | 13 | 13 | 11.3 | 22.5 | 0.05 | 6.86 | 6.81 | 96 | 1017.8 |
| 20260502030731 | 13 | 35 | 12.9 | 22.5 | 0.05 | 6.86 | 6.81 | 96 | 1017.8 |
| 20260502030632 | 13 | 55 | 11.3 | 22.5 | 0.05 | 6.86 | 6.81 | 96 | 1017.7 |
| 20260502030531 | 13 | 27 | 9.7 | 20.9 | 0.05 | 6.86 | 6.81 | 96 | 1017.8 |
| 20260502030431 | 13 | 20 | 11.3 | 19.3 | 0.05 | 6.86 | 6.81 | 96 | 1017.7 |
| 20260502030333 | 13 | 23 | 11.3 | 19.3 | 0.05 | 6.86 | 6.81 | 96 | 1017.6 |
| 20260502030231 | 13 | 8 | 11.3 | 17.7 | 0.05 | 6.86 | 6.81 | 96 | 1017.4 |
| 20260502030132 | 13 | 18 | 9.7 | 16.1 | 0.08 | 6.86 | 6.81 | 96 | 1017.3 |
| 20260502030032 | 13 | 72 | 8.0 | 16.1 | 0.08 | 6.78 | 6.81 | 96 | 1017.2 |
| 20260502025931 | 13 | 66 | 8.0 | 19.3 | 0.08 | 6.78 | 6.81 | 96 | 1017.2 |
| 20260502025831 | 13 | 47 | 9.7 | 25.7 | 0.08 | 6.78 | 6.81 | 96 | 1017.3 |
| 20260502025732 | 13 | 71 | 8.0 | 25.7 | 0.08 | 6.78 | 6.81 | 96 | 1017.5 |
| 20260502025632 | 13 | 17 | 9.7 | 25.7 | 0.08 | 6.78 | 6.81 | 96 | 1017.6 |
| 20260502025531 | 13 | 63 | 8.0 | 25.7 | 0.08 | 6.78 | 6.81 | 96 | 1017.6 |
| 20260502025432 | 13 | 16 | 8.0 | 25.7 | 0.08 | 6.78 | 6.81 | 96 | 1017.6 |
| 20260502025327 | 13 | 24 | 9.7 | 25.7 | 0.08 | 6.78 | 6.81 | 96 | 1017.6 |
| 20260502025224 | 13 | 49 | 8.0 | 25.7 | 0.08 | 6.78 | 6.81 | 96 | 1017.6 |
| 20260502025121 | 13 | 30 | 11.3 | 25.7 | 0.08 | 6.78 | 6.81 | 96 | 1017.6 |
| 20260502025021 | 13 | 42 | 16.1 | 25.7 | 0.08 | 6.78 | 6.81 | 96 | 1017.5 |
| 20260502024916 | 13 | 47 | 14.5 | 25.7 | 0.08 | 6.78 | 6.81 | 96 | 1017.4 |
| 20260502024816 | 13 | 28 | 8.0 | 24.1 | 0.08 | 6.78 | 6.81 | 96 | 1017.5 |
| 20260502024714 | 13 | 47 | 9.7 | 24.1 | 0.08 | 6.78 | 6.81 | 96 | 1017.4 |
| 20260502024614 | 13 | 31 | 9.7 | 24.1 | 0.08 | 6.78 | 6.81 | 96 | 1017.3 |
| 20260502024515 | 13 | 73 | 8.0 | 24.1 | 0.08 | 6.78 | 6.81 | 96 | 1017.3 |
| 20260502024413 | 13 | 31 | 9.7 | 24.1 | 0.08 | 6.78 | 6.81 | 96 | 1017.3 |
| 20260502024314 | 13 | 51 | 9.7 | 24.1 | 0.08 | 6.78 | 6.81 | 96 | 1017.2 |
| 20260502024215 | 13 | 38 | 12.9 | 24.1 | 0.08 | 6.78 | 6.81 | 96 | 1017.2 |
| 20260502024113 | 13 | 25 | 12.9 | 24.1 | 0.08 | 6.78 | 6.81 | 96 | 1017.2 |
| 20260502024015 | 13 | 6 | 12.9 | 24.1 | 0.08 | 6.78 | 6.81 | 96 | 1017.1 |
| 20260502023914 | 13 | 56 | 12.9 | 24.1 | 0.08 | 6.78 | 6.81 | 96 | 1017.2 |
| 20260502023814 | 13 | 42 | 12.9 | 24.1 | 0.08 | 6.78 | 6.81 | 96 | 1017.3 |
| 20260502023713 | 13 | 35 | 14.5 | 24.1 | 0.08 | 6.78 | 6.81 | 96 | 1017.3 |
| 20260502023613 | 13 | 25 | 16.1 | 24.1 | 0.08 | 6.78 | 6.81 | 96 | 1017.4 |
| 20260502023513 | 13 | 62 | 11.3 | 24.1 | 0.10 | 6.78 | 6.78 | 96 | 1017.4 |
| 20260502023413 | 13 | 17 | 8.0 | 20.9 | 0.08 | 6.78 | 6.78 | 96 | 1017.4 |
| 20260502023313 | 13 | 51 | 9.7 | 20.9 | 0.08 | 6.78 | 6.78 | 96 | 1017.5 |
| 20260502023214 | 13 | 0 | 11.3 | 20.9 | 0.08 | 6.78 | 6.78 | 96 | 1017.5 |
| 20260502023113 | 13 | 0 | 11.3 | 20.9 | 0.08 | 6.78 | 6.78 | 96 | 1017.5 |
| 20260502023014 | 13 | 31 | 11.3 | 20.9 | 0.08 | 6.78 | 6.78 | 96 | 1017.5 |
| 20260502022914 | 13 | 55 | 11.3 | 20.9 | 0.08 | 6.78 | 6.78 | 96 | 1017.5 |
| 20260502022815 | 13 | 18 | 11.3 | 20.9 | 0.10 | 6.78 | 6.78 | 96 | 1017.5 |
| 20260502022714 | 13 | 54 | 11.3 | 20.9 | 0.10 | 6.78 | 6.78 | 96 | 1017.5 |
| 20260502022614 | 13 | 38 | 9.7 | 20.9 | 0.10 | 6.78 | 6.78 | 96 | 1017.6 |
| 20260502022514 | 13 | 17 | 9.7 | 20.9 | 0.10 | 6.78 | 6.78 | 96 | 1017.6 |
| 20260502022413 | 13 | 1 | 9.7 | 20.9 | 0.10 | 6.78 | 6.78 | 96 | 1017.5 |
| 20260502022313 | 13 | 11 | 8.0 | 20.9 | 0.13 | 6.78 | 6.78 | 96 | 1017.5 |
| 20260502022214 | 13 | 58 | 8.0 | 20.9 | 0.13 | 6.78 | 6.78 | 96 | 1017.4 |
| 20260502022115 | 13 | 48 | 11.3 | 20.9 | 0.13 | 6.78 | 6.78 | 96 | 1017.4 |
| 20260502022014 | 13 | 0 | 12.9 | 20.9 | 0.10 | 6.78 | 6.76 | 96 | 1017.2 |
| 20260502021913 | 13 | 8 | 11.3 | 20.9 | 0.13 | 6.78 | 6.76 | 96 | 1017.2 |
| 20260502021814 | 13 | 31 | 11.3 | 20.9 | 0.13 | 6.78 | 6.76 | 96 | 1017.1 |
| 20260502021714 | 13 | 20 | 9.7 | 20.9 | 0.13 | 6.78 | 6.76 | 96 | 1017.1 |
| 20260502021613 | 13 | 16 | 11.3 | 20.9 | 0.13 | 6.78 | 6.76 | 96 | 1017.1 |
| 20260502021513 | 13 | 23 | 11.3 | 20.9 | 0.13 | 6.78 | 6.76 | 96 | 1017.2 |
| 20260502021414 | 13 | 38 | 11.3 | 20.9 | 0.13 | 6.78 | 6.76 | 96 | 1017.2 |
| 20260502021313 | 13 | 355 | 11.3 | 20.9 | 0.13 | 6.78 | 6.76 | 96 | 1017.2 |
| 20260502021212 | 13 | 6 | 11.3 | 20.9 | 0.15 | 6.78 | 6.76 | 96 | 1017.2 |
| 20260502021113 | 13 | 52 | 12.9 | 20.9 | 0.15 | 6.78 | 6.76 | 96 | 1017.2 |
| 20260502021013 | 13 | 13 | 11.3 | 20.9 | 0.15 | 6.78 | 6.76 | 96 | 1017.3 |
| 20260502020912 | 13 | 52 | 9.7 | 20.9 | 0.15 | 6.78 | 6.76 | 96 | 1017.3 |
| 20260502020813 | 13 | 44 | 11.3 | 20.9 | 0.15 | 6.78 | 6.76 | 96 | 1017.3 |
| 20260502020713 | 13 | 47 | 11.3 | 20.9 | 0.15 | 6.78 | 6.76 | 96 | 1017.2 |
| 20260502020612 | 13 | 42 | 12.9 | 20.9 | 0.15 | 6.78 | 6.76 | 96 | 1017.2 |
| 20260502020512 | 14 | 0 | 11.3 | 20.9 | 0.15 | 6.78 | 6.76 | 96 | 1017.2 |
| 20260502020415 | 14 | 0 | 11.3 | 20.9 | 0.15 | 6.78 | 6.76 | 96 | 1017.2 |
| 20260502020314 | 14 | 0 | 14.5 | 20.9 | 0.15 | 6.78 | 6.76 | 96 | 1017.2 |
| 20260502020213 | 14 | 11 | 12.9 | 20.9 | 0.13 | 6.78 | 6.73 | 96 | 1017.1 |
| 20260502020113 | 14 | 333 | 9.7 | 20.9 | 0.13 | 6.78 | 6.73 | 96 | 1017.2 |
| 20260502020012 | 14 | 17 | 8.0 | 17.7 | 0.13 | 6.65 | 6.73 | 96 | 1017.1 |
| 20260502015912 | 14 | 24 | 6.4 | 17.7 | 0.13 | 6.65 | 6.73 | 96 | 1017.0 |
| 20260502015813 | 14 | 6 | 8.0 | 17.7 | 0.13 | 6.65 | 6.73 | 96 | 1017.0 |
| 20260502015714 | 14 | 27 | 8.0 | 17.7 | 0.13 | 6.65 | 6.73 | 96 | 1016.9 |
| 20260502015612 | 14 | 338 | 6.4 | 17.7 | 0.13 | 6.65 | 6.73 | 96 | 1017.0 |
| 20260502015513 | 14 | 14 | 6.4 | 25.7 | 0.15 | 6.65 | 6.73 | 96 | 1016.9 |
| 20260502015414 | 14 | 0 | 8.0 | 25.7 | 0.15 | 6.65 | 6.73 | 96 | 1017.0 |
| 20260502015312 | 14 | 0 | 9.7 | 25.7 | 0.15 | 6.65 | 6.73 | 96 | 1017.0 |
| 20260502015212 | 14 | 16 | 9.7 | 25.7 | 0.15 | 6.65 | 6.73 | 96 | 1017.0 |
| 20260502015112 | 14 | 4 | 9.7 | 25.7 | 0.15 | 6.65 | 6.73 | 96 | 1017.0 |
| 20260502015013 | 14 | 17 | 12.9 | 25.7 | 0.15 | 6.65 | 6.73 | 96 | 1016.9 |
| 20260502014913 | 14 | 17 | 12.9 | 25.7 | 0.15 | 6.65 | 6.73 | 96 | 1016.9 |
| 20260502014804 | 14 | 17 | 12.9 | 25.7 | 0.18 | 6.65 | 6.73 | 96 | 1016.8 |
| 20260502014704 | 14 | 0 | 11.3 | 25.7 | 0.18 | 6.65 | 6.73 | 96 | 1016.7 |
| 20260502014603 | 14 | 0 | 9.7 | 25.7 | 0.18 | 6.65 | 6.73 | 96 | 1016.7 |
| 20260502014503 | 14 | 316 | 8.0 | 19.3 | 0.18 | 6.65 | 6.73 | 96 | 1016.5 |
| 20260502014402 | 14 | 14 | 9.7 | 19.3 | 0.18 | 6.65 | 6.73 | 96 | 1016.5 |
| 20260502014303 | 14 | 31 | 9.7 | 19.3 | 0.20 | 6.65 | 6.73 | 96 | 1016.4 |
| 20260502014203 | 14 | 337 | 8.0 | 19.3 | 0.20 | 6.65 | 6.73 | 96 | 1016.4 |
| 20260502014103 | 14 | 353 | 8.0 | 19.3 | 0.20 | 6.65 | 6.73 | 96 | 1016.3 |
| 20260502014004 | 14 | 13 | 8.0 | 19.3 | 0.20 | 6.65 | 6.73 | 97 | 1016.3 |
| 20260502013903 | 14 | 14 | 9.7 | 19.3 | 0.20 | 6.65 | 6.73 | 97 | 1016.4 |
| 20260502013803 | 14 | 350 | 8.0 | 22.5 | 0.20 | 6.65 | 6.73 | 96 | 1016.2 |
| 20260502013702 | 14 | 17 | 4.8 | 22.5 | 0.20 | 6.65 | 6.73 | 96 | 1016.1 |
| 20260502013603 | 14 | 18 | 4.8 | 22.5 | 0.23 | 6.65 | 6.71 | 96 | 1016.1 |
| 20260502013504 | 14 | 18 | 8.0 | 22.5 | 0.20 | 6.65 | 6.71 | 96 | 1016.1 |
| 20260502013402 | 14 | 14 | 9.7 | 22.5 | 0.20 | 6.65 | 6.71 | 96 | 1016.1 |
| 20260502013303 | 14 | 39 | 11.3 | 22.5 | 0.20 | 6.65 | 6.71 | 96 | 1016.1 |
| 20260502013203 | 14 | 27 | 11.3 | 22.5 | 0.20 | 6.65 | 6.71 | 96 | 1016.0 |
| 20260502013102 | 14 | 23 | 12.9 | 22.5 | 0.20 | 6.65 | 6.71 | 96 | 1015.9 |
| 20260502013005 | 14 | 14 | 12.9 | 22.5 | 0.20 | 6.65 | 6.68 | 96 | 1015.9 |
| 20260502012902 | 14 | 18 | 11.3 | 22.5 | 0.18 | 6.65 | 6.68 | 96 | 1015.8 |
| 20260502012803 | 14 | 25 | 9.7 | 20.9 | 0.20 | 6.65 | 6.68 | 96 | 1015.9 |
| 20260502012703 | 14 | 52 | 9.7 | 20.9 | 0.20 | 6.65 | 6.68 | 96 | 1015.9 |
| 20260502012603 | 14 | 47 | 8.0 | 20.9 | 0.20 | 6.65 | 6.68 | 96 | 1016.0 |
| 20260502012502 | 14 | 52 | 9.7 | 20.9 | 0.20 | 6.65 | 6.68 | 96 | 1016.1 |
| 20260502012402 | 14 | 44 | 12.9 | 20.9 | 0.20 | 6.65 | 6.65 | 96 | 1016.1 |
| 20260502012306 | 14 | 35 | 14.5 | 20.9 | 0.20 | 6.65 | 6.65 | 96 | 1016.1 |
| 20260502012204 | 14 | 47 | 14.5 | 20.9 | 0.20 | 6.65 | 6.63 | 96 | 1016.1 |
| 20260502012103 | 14 | 18 | 12.9 | 20.9 | 0.20 | 6.65 | 6.63 | 96 | 1016.2 |
| 20260502012003 | 14 | 17 | 12.9 | 20.9 | 0.18 | 6.65 | 6.63 | 96 | 1016.1 |
| 20260502011904 | 14 | 35 | 11.3 | 20.9 | 0.18 | 6.65 | 6.63 | 96 | 1016.2 |
| 20260502011804 | 14 | 11 | 12.9 | 20.9 | 0.18 | 6.65 | 6.63 | 96 | 1016.3 |
| 20260502011701 | 15 | 8 | 12.9 | 20.9 | 0.18 | 6.65 | 6.63 | 96 | 1016.4 |
| 20260502011603 | 15 | 44 | 9.7 | 17.7 | 0.20 | 6.65 | 6.63 | 96 | 1016.5 |
| 20260502011503 | 15 | 6 | 6.4 | 14.5 | 0.20 | 6.65 | 6.63 | 96 | 1016.7 |
| 20260502011402 | 15 | 4 | 6.4 | 14.5 | 0.20 | 6.65 | 6.63 | 96 | 1016.8 |
| 20260502011303 | 15 | 353 | 6.4 | 14.5 | 0.18 | 6.65 | 6.60 | 96 | 1016.7 |
| 20260502011202 | 15 | 319 | 8.0 | 14.5 | 0.20 | 6.65 | 6.60 | 96 | 1016.7 |
| 20260502011102 | 15 | 340 | 9.7 | 14.5 | 0.20 | 6.65 | 6.60 | 96 | 1016.7 |
| 20260502011002 | 15 | 17 | 8.0 | 14.5 | 0.20 | 6.65 | 6.60 | 96 | 1016.7 |
| 20260502010904 | 15 | 8 | 6.4 | 11.3 | 0.20 | 6.65 | 6.60 | 97 | 1016.7 |
| 20260502010803 | 15 | 0 | 6.4 | 11.3 | 0.23 | 6.65 | 6.60 | 97 | 1016.6 |
| 20260502010702 | 15 | 0 | 4.8 | 11.3 | 0.23 | 6.65 | 6.60 | 96 | 1016.6 |
| 20260502010604 | 15 | 212 | 3.2 | 11.3 | 0.23 | 6.65 | 6.60 | 96 | 1016.3 |
| 20260502010505 | 14 | 0 | 3.2 | 11.3 | 0.23 | 6.65 | 6.60 | 96 | 1016.3 |
| 20260502010403 | 14 | 0 | 6.4 | 17.7 | 0.25 | 6.65 | 6.60 | 96 | 1016.2 |
| 20260502010302 | 14 | 0 | 6.4 | 19.3 | 0.25 | 6.65 | 6.60 | 96 | 1016.0 |
| 20260502010203 | 14 | 344 | 8.0 | 19.3 | 0.25 | 6.65 | 6.60 | 96 | 1016.1 |
| 20260502010004 | 14 | 0 | 6.4 | 22.5 | 0.25 | 6.40 | 6.60 | 96 | 1015.9 |
| 20260502005904 | 14 | 0 | 8.0 | 22.5 | 0.25 | 6.40 | 6.60 | 96 | 1015.8 |
| 20260502005802 | 14 | 0 | 6.4 | 22.5 | 0.25 | 6.40 | 6.60 | 96 | 1015.7 |
| 20260502005702 | 14 | 23 | 6.4 | 22.5 | 0.25 | 6.40 | 6.60 | 96 | 1015.5 |
| 20260502005602 | 14 | 38 | 9.7 | 22.5 | 0.25 | 6.40 | 6.58 | 96 | 1015.5 |
| 20260502005503 | 14 | 27 | 12.9 | 22.5 | 0.23 | 6.40 | 6.58 | 96 | 1015.3 |
| 20260502005402 | 14 | 31 | 9.7 | 22.5 | 0.23 | 6.40 | 6.58 | 96 | 1015.3 |
| 20260502005305 | 14 | 18 | 8.0 | 22.5 | 0.23 | 6.40 | 6.58 | 96 | 1015.2 |
| 20260502005203 | 14 | 48 | 9.7 | 22.5 | 0.23 | 6.40 | 6.58 | 96 | 1015.1 |
| 20260502005102 | 14 | 21 | 9.7 | 22.5 | 0.23 | 6.40 | 6.58 | 96 | 1015.1 |
| 20260502005003 | 14 | 63 | 11.3 | 22.5 | 0.23 | 6.40 | 6.58 | 96 | 1015.1 |
| 20260502004903 | 14 | 49 | 11.3 | 22.5 | 0.25 | 6.40 | 6.55 | 96 | 1015.1 |
| 20260502004802 | 14 | 7 | 12.9 | 20.9 | 0.23 | 6.40 | 6.55 | 96 | 1015.1 |
| 20260502004702 | 14 | 47 | 11.3 | 20.9 | 0.23 | 6.40 | 6.55 | 96 | 1015.0 |
| 20260502004602 | 15 | 30 | 9.7 | 20.9 | 0.23 | 6.40 | 6.55 | 96 | 1015.0 |
| 20260502004504 | 15 | 25 | 12.9 | 20.9 | 0.23 | 6.40 | 6.55 | 96 | 1015.0 |
| 20260502004403 | 15 | 20 | 14.5 | 20.9 | 0.23 | 6.40 | 6.53 | 96 | 1015.0 |
| 20260502004303 | 15 | 37 | 11.3 | 20.9 | 0.20 | 6.40 | 6.53 | 96 | 1015.1 |
| 20260502004202 | 15 | 0 | 12.9 | 20.9 | 0.23 | 6.40 | 6.53 | 96 | 1015.2 |
| 20260502004102 | 15 | 56 | 14.5 | 20.9 | 0.23 | 6.40 | 6.53 | 96 | 1015.3 |
| 20260502004005 | 15 | 13 | 11.3 | 20.9 | 0.23 | 6.40 | 6.53 | 96 | 1015.3 |
| 20260502003902 | 15 | 4 | 9.7 | 17.7 | 0.23 | 6.40 | 6.53 | 96 | 1015.4 |
| 20260502003802 | 15 | 52 | 11.3 | 17.7 | 0.23 | 6.40 | 6.53 | 96 | 1015.3 |
| 20260502003703 | 15 | 24 | 11.3 | 17.7 | 0.23 | 6.40 | 6.50 | 96 | 1015.2 |
| 20260502003602 | 15 | 11 | 9.7 | 17.7 | 0.20 | 6.40 | 6.50 | 96 | 1015.2 |
| 20260502003502 | 15 | 0 | 8.0 | 17.7 | 0.20 | 6.40 | 6.50 | 96 | 1015.2 |
| 20260502003403 | 15 | 357 | 6.4 | 17.7 | 0.23 | 6.40 | 6.50 | 96 | 1015.2 |
| 20260502003302 | 15 | 23 | 6.4 | 17.7 | 0.23 | 6.40 | 6.50 | 96 | 1015.2 |
| 20260502003203 | 15 | 0 | 8.0 | 17.7 | 0.23 | 6.40 | 6.50 | 96 | 1015.2 |
| 20260502003103 | 15 | 7 | 9.7 | 17.7 | 0.23 | 6.40 | 6.50 | 96 | 1015.2 |
| 20260502003004 | 15 | 13 | 9.7 | 17.7 | 0.23 | 6.40 | 6.50 | 96 | 1015.2 |
| 20260502002902 | 15 | 13 | 6.4 | 17.7 | 0.25 | 6.40 | 6.48 | 96 | 1015.2 |
| 20260502002803 | 15 | 24 | 4.8 | 17.7 | 0.25 | 6.40 | 6.48 | 96 | 1015.0 |
| 20260502002702 | 15 | 23 | 6.4 | 19.3 | 0.25 | 6.40 | 6.48 | 96 | 1014.9 |
| 20260502002602 | 15 | 54 | 9.7 | 19.3 | 0.28 | 6.40 | 6.48 | 96 | 1014.8 |
| 20260502002503 | 15 | 16 | 11.3 | 20.9 | 0.30 | 6.40 | 6.48 | 96 | 1014.8 |
| 20260502002402 | 15 | 357 | 8.0 | 22.5 | 0.33 | 6.40 | 6.45 | 96 | 1014.9 |
| 20260502002305 | 15 | 23 | 8.0 | 22.5 | 0.36 | 6.40 | 6.45 | 96 | 1014.8 |
| 20260502002202 | 15 | 47 | 9.7 | 22.5 | 0.41 | 6.40 | 6.45 | 96 | 1014.9 |
| 20260502002103 | 15 | 59 | 9.7 | 22.5 | 0.46 | 6.40 | 6.45 | 96 | 1014.8 |
| 20260502002004 | 15 | 13 | 9.7 | 22.5 | 0.48 | 6.40 | 6.45 | 96 | 1014.8 |
| 20260502001903 | 15 | 54 | 12.9 | 22.5 | 0.51 | 6.40 | 6.45 | 96 | 1014.9 |
| 20260502001802 | 15 | 0 | 12.9 | 22.5 | 0.53 | 6.40 | 6.45 | 96 | 1014.8 |
| 20260502001702 | 15 | 17 | 11.3 | 22.5 | 0.56 | 6.40 | 6.43 | 96 | 1014.8 |
| 20260502001602 | 15 | 4 | 11.3 | 22.5 | 0.53 | 6.40 | 6.43 | 96 | 1014.8 |
| 20260502001503 | 15 | 54 | 9.7 | 22.5 | 0.53 | 6.40 | 6.43 | 96 | 1014.9 |
| 20260502001403 | 15 | 42 | 9.7 | 19.3 | 0.53 | 6.40 | 6.43 | 96 | 1014.9 |
| 20260502001303 | 15 | 31 | 9.7 | 19.3 | 0.56 | 6.40 | 6.40 | 96 | 1014.9 |
| 20260502001203 | 15 | 28 | 9.7 | 17.7 | 0.53 | 6.40 | 6.40 | 96 | 1014.9 |
| 20260502001104 | 15 | 45 | 8.0 | 17.7 | 0.53 | 6.40 | 6.40 | 96 | 1014.9 |
| 20260502001002 | 15 | 44 | 8.0 | 14.5 | 0.53 | 6.40 | 6.40 | 96 | 1015.1 |
| 20260502000902 | 15 | 21 | 9.7 | 14.5 | 0.53 | 6.40 | 6.38 | 96 | 1015.1 |
| 20260502000803 | 15 | 16 | 8.0 | 11.3 | 0.51 | 6.40 | 6.38 | 96 | 1015.3 |
| 20260502000703 | 15 | 48 | 8.0 | 16.1 | 0.51 | 6.40 | 6.38 | 96 | 1015.5 |
| 20260502000604 | 15 | 16 | 8.0 | 16.1 | 0.51 | 6.40 | 6.38 | 96 | 1015.7 |
| 20260502000502 | 15 | 17 | 6.4 | 16.1 | 0.51 | 6.40 | 6.35 | 96 | 1015.8 |
| 20260502000403 | 15 | 351 | 4.8 | 16.1 | 0.48 | 6.40 | 6.35 | 96 | 1015.8 |
| 20260502000303 | 15 | 0 | 4.8 | 16.1 | 0.48 | 6.40 | 6.35 | 96 | 1015.9 |
| 20260502000203 | 15 | 350 | 3.2 | 16.1 | 0.48 | 6.40 | 6.35 | 96 | 1015.9 |
| 20260502000003 | 15 | 7 | 4.8 | 16.1 | 0.48 | 5.92 | 6.35 | 96 | 1015.6 |
| 20260501235902 | 15 | 8 | 6.4 | 24.1 | 0.48 | 5.92 | 6.35 | 96 | 1015.5 |
| 20260501235803 | 15 | 49 | 6.4 | 25.7 | 0.48 | 5.92 | 6.35 | 96 | 1015.4 |
| 20260501235702 | 15 | 11 | 8.0 | 25.7 | 0.48 | 5.92 | 6.35 | 96 | 1015.3 |
| 20260501235603 | 15 | 37 | 8.0 | 25.7 | 0.48 | 5.92 | 6.35 | 96 | 1015.3 |
| 20260501235503 | 15 | 34 | 8.0 | 25.7 | 0.48 | 5.92 | 6.35 | 96 | 1015.0 |
| 20260501235401 | 15 | 0 | 6.4 | 25.7 | 0.48 | 5.92 | 6.35 | 96 | 1015.0 |
| 20260501235305 | 15 | 0 | 3.2 | 25.7 | 0.48 | 5.92 | 6.35 | 96 | 1014.8 |
| 20260501235202 | 15 | 35 | 4.8 | 25.7 | 0.48 | 5.92 | 6.35 | 96 | 1014.5 |
| 20260501235104 | 15 | 62 | 11.3 | 25.7 | 0.48 | 5.92 | 6.35 | 96 | 1014.1 |
| 20260501235004 | 15 | 52 | 12.9 | 25.7 | 0.48 | 5.92 | 6.32 | 96 | 1013.9 |
| 20260501234902 | 15 | 58 | 8.0 | 25.7 | 0.46 | 5.92 | 6.32 | 96 | 1013.5 |
| 20260501234802 | 15 | 79 | 8.0 | 24.1 | 0.46 | 5.92 | 6.32 | 96 | 1013.2 |
| 20260501234703 | 15 | 75 | 9.7 | 24.1 | 0.46 | 5.92 | 6.32 | 96 | 1013.1 |
| 20260501234603 | 15 | 99 | 9.7 | 20.9 | 0.46 | 5.92 | 6.32 | 96 | 1013.1 |
| 20260501234501 | 15 | 63 | 9.7 | 20.9 | 0.46 | 5.92 | 6.32 | 96 | 1013.3 |
| 20260501234400 | 15 | 123 | 9.7 | 19.3 | 0.46 | 5.92 | 6.32 | 96 | 1013.4 |
| 20260501234259 | 15 | 79 | 9.7 | 19.3 | 0.46 | 5.92 | 6.30 | 96 | 1013.6 |
| 20260501234200 | 15 | 65 | 8.0 | 19.3 | 0.43 | 5.92 | 6.30 | 96 | 1013.9 |
| 20260501234057 | 15 | 94 | 6.4 | 19.3 | 0.43 | 5.92 | 6.30 | 96 | 1014.0 |
| 20260501233954 | 15 | 85 | 6.4 | 19.3 | 0.43 | 5.92 | 6.30 | 96 | 1014.1 |
| 20260501233852 | 15 | 96 | 6.4 | 19.3 | 0.43 | 5.92 | 6.30 | 96 | 1014.2 |
| 20260501233749 | 15 | 71 | 8.0 | 19.3 | 0.43 | 5.92 | 6.30 | 96 | 1014.2 |
| 20260501233641 | 15 | 54 | 6.4 | 22.5 | 0.43 | 5.92 | 6.30 | 96 | 1014.3 |
| 20260501233542 | 15 | 72 | 8.0 | 22.5 | 0.43 | 5.92 | 6.30 | 96 | 1014.3 |
| 20260501233440 | 15 | 79 | 9.7 | 22.5 | 0.43 | 5.92 | 6.27 | 96 | 1014.5 |
| 20260501233339 | 15 | 82 | 8.0 | 22.5 | 0.41 | 5.92 | 6.27 | 96 | 1014.5 |
| 20260501233237 | 15 | 23 | 6.4 | 22.5 | 0.41 | 5.92 | 6.27 | 96 | 1014.6 |
| 20260501233136 | 15 | 55 | 6.4 | 22.5 | 0.41 | 5.92 | 6.27 | 96 | 1014.7 |
| 20260501233034 | 15 | 61 | 8.0 | 22.5 | 0.41 | 5.92 | 6.27 | 96 | 1014.7 |
| 20260501232931 | 15 | 48 | 9.7 | 22.5 | 0.38 | 5.92 | 6.25 | 96 | 1014.6 |
| 20260501232832 | 15 | 23 | 9.7 | 22.5 | 0.38 | 5.92 | 6.22 | 96 | 1014.5 |
| 20260501232730 | 15 | 32 | 8.0 | 20.9 | 0.36 | 5.92 | 6.22 | 96 | 1014.5 |
| 20260501232633 | 15 | 35 | 8.0 | 22.5 | 0.33 | 5.92 | 6.20 | 96 | 1014.4 |
| 20260501232532 | 15 | 56 | 9.7 | 22.5 | 0.30 | 5.92 | 6.17 | 96 | 1014.4 |
| 20260501232432 | 15 | 49 | 9.7 | 22.5 | 0.30 | 5.92 | 6.15 | 96 | 1014.4 |
| 20260501232332 | 15 | 34 | 9.7 | 22.5 | 0.25 | 5.92 | 6.10 | 96 | 1014.5 |
| 20260501232233 | 15 | 62 | 11.3 | 22.5 | 0.20 | 5.92 | 6.05 | 96 | 1014.6 |
| 20260501232131 | 15 | 47 | 12.9 | 22.5 | 0.15 | 5.92 | 5.99 | 96 | 1014.7 |
| 20260501232031 | 15 | 28 | 11.3 | 22.5 | 0.13 | 5.92 | 5.97 | 96 | 1014.9 |
| 20260501231933 | 15 | 18 | 9.7 | 22.5 | 0.08 | 5.92 | 5.94 | 96 | 1014.9 |
| 20260501231831 | 15 | 16 | 12.9 | 22.5 | 0.05 | 5.92 | 5.92 | 96 | 1014.9 |
| 20260501231730 | 15 | 47 | 14.5 | 22.5 | 0.05 | 5.92 | 5.89 | 96 | 1014.9 |
| 20260501231629 | 15 | 58 | 12.9 | 20.9 | 0.03 | 5.92 | 5.89 | 96 | 1015.0 |
| 20260501231528 | 15 | 55 | 9.7 | 19.3 | 0.03 | 5.92 | 5.89 | 96 | 1015.1 |
| 20260501231427 | 15 | 56 | 8.0 | 19.3 | 0.03 | 5.92 | 5.89 | 96 | 1015.2 |
| 20260501231325 | 15 | 17 | 8.0 | 19.3 | 0.03 | 5.92 | 5.87 | 96 | 1015.3 |
| 20260501231223 | 15 | 0 | 8.0 | 19.3 | 0.00 | 5.92 | 5.87 | 96 | 1015.4 |
| 20260501231123 | 15 | 14 | 6.4 | 19.3 | 0.00 | 5.92 | 5.87 | 96 | 1015.2 |
| 20260501231020 | 15 | 61 | 6.4 | 19.3 | 0.00 | 5.92 | 5.87 | 96 | 1015.1 |
| 20260501230920 | 15 | 58 | 6.4 | 19.3 | 0.03 | 5.92 | 5.87 | 96 | 1015.1 |
| 20260501230817 | 15 | 52 | 6.4 | 19.3 | 0.03 | 5.92 | 5.87 | 96 | 1015.0 |
| 20260501230716 | 15 | 63 | 11.3 | 19.3 | 0.03 | 5.92 | 5.87 | 96 | 1014.9 |
| 20260501230617 | 15 | 65 | 4.8 | 19.3 | 0.03 | 5.92 | 5.87 | 96 | 1014.8 |
| 20260501230516 | 15 | 16 | 4.8 | 19.3 | 0.03 | 5.92 | 5.87 | 96 | 1014.7 |
| 20260501230416 | 15 | 68 | 6.4 | 19.3 | 0.03 | 5.92 | 5.87 | 96 | 1014.5 |
| 20260501230314 | 15 | 63 | 6.4 | 19.3 | 0.03 | 5.92 | 5.87 | 96 | 1014.5 |
| 20260501230213 | 15 | 61 | 8.0 | 19.3 | 0.03 | 5.92 | 5.87 | 96 | 1014.4 |
| 20260501230110 | 15 | 41 | 6.4 | 19.3 | 0.03 | 5.92 | 5.87 | 96 | 1014.3 |
| 20260501230011 | 15 | 59 | 6.4 | 19.3 | 0.03 | 5.89 | 5.87 | 96 | 1014.1 |
| 20260501225908 | 15 | 61 | 8.0 | 19.3 | 0.03 | 5.89 | 5.87 | 96 | 1014.1 |
| 20260501225808 | 15 | 97 | 9.7 | 19.3 | 0.03 | 5.89 | 5.87 | 96 | 1014.0 |
| 20260501225709 | 15 | 47 | 9.7 | 16.1 | 0.03 | 5.89 | 5.87 | 96 | 1013.9 |
| 20260501225605 | 15 | 104 | 8.0 | 14.5 | 0.05 | 5.89 | 5.87 | 96 | 1013.7 |
| 20260501225504 | 15 | 116 | 8.0 | 16.1 | 0.05 | 5.89 | 5.87 | 96 | 1013.6 |
| 20260501225404 | 15 | 68 | 4.8 | 16.1 | 0.05 | 5.89 | 5.87 | 96 | 1013.4 |
| 20260501225306 | -17 | 0.0 | 20.9 | 0.05 | 5.89 | 5.87 | 1013.5 | ||
| 20260501225203 | -17 | 0.0 | 22.5 | 0.05 | 5.89 | 5.87 | 1013.4 | ||
| 20260501225103 | -17 | 0.0 | 22.5 | 0.05 | 5.89 | 5.87 | 1013.5 | ||
| 20260501225003 | 15 | 25 | 12.9 | 22.5 | 0.05 | 5.89 | 5.87 | 96 | 1013.6 |
| 20260501224903 | 15 | 25 | 12.9 | 22.5 | 0.08 | 5.89 | 5.87 | 96 | 1013.6 |
| 20260501224803 | 15 | 25 | 12.9 | 22.5 | 0.08 | 5.89 | 5.87 | 96 | 1013.6 |
| 20260501224703 | 15 | 25 | 12.9 | 22.5 | 0.08 | 5.89 | 5.87 | 96 | 1013.7 |
| 20260501224604 | 15 | 25 | 12.9 | 22.5 | 0.08 | 5.89 | 5.87 | 96 | 1013.8 |
| 20260501224502 | 15 | 20 | 12.9 | 22.5 | 0.08 | 5.89 | 5.87 | 96 | 1013.9 |
| 20260501224402 | 15 | 55 | 14.5 | 22.5 | 0.08 | 5.89 | 5.87 | 96 | 1013.9 |
| 20260501224302 | 15 | 17 | 14.5 | 22.5 | 0.10 | 5.89 | 5.87 | 96 | 1013.9 |
| 20260501224203 | 16 | 65 | 14.5 | 22.5 | 0.10 | 5.89 | 5.87 | 96 | 1013.8 |
| 20260501224103 | 16 | 83 | 12.9 | 19.3 | 0.10 | 5.89 | 5.87 | 96 | 1013.9 |
| 20260501224004 | 16 | 59 | 6.4 | 24.1 | 0.10 | 5.89 | 5.87 | 96 | 1014.0 |
| 20260501223903 | 16 | 59 | 6.4 | 24.1 | 0.13 | 5.89 | 5.87 | 96 | 1013.9 |
| 20260501223803 | 16 | 59 | 6.4 | 24.1 | 0.13 | 5.89 | 5.87 | 96 | 1013.8 |
| 20260501223703 | 16 | 31 | 4.8 | 24.1 | 0.13 | 5.89 | 5.87 | 96 | 1013.7 |
| 20260501223603 | 16 | 51 | 11.3 | 24.1 | 0.13 | 5.89 | 5.87 | 96 | 1013.7 |
| 20260501223503 | 16 | 28 | 11.3 | 24.1 | 0.15 | 5.89 | 5.87 | 96 | 1013.6 |
| 20260501223403 | 16 | 34 | 6.4 | 24.1 | 0.15 | 5.89 | 5.87 | 96 | 1013.6 |
| 20260501223302 | 16 | 58 | 6.4 | 24.1 | 0.15 | 5.89 | 5.87 | 96 | 1013.5 |
| 20260501223204 | 16 | 63 | 9.7 | 24.1 | 0.15 | 5.89 | 5.87 | 96 | 1013.6 |
| 20260501223103 | 16 | 51 | 9.7 | 24.1 | 0.18 | 5.89 | 5.87 | 96 | 1013.8 |
| 20260501223004 | 16 | 42 | 4.8 | 27.4 | 0.18 | 5.89 | 5.87 | 96 | 1013.7 |
| 20260501222904 | 16 | 59 | 6.4 | 27.4 | 0.18 | 5.89 | 5.87 | 96 | 1013.7 |
| 20260501222802 | 16 | 39 | 9.7 | 27.4 | 0.18 | 5.89 | 5.87 | 96 | 1013.7 |
| 20260501222703 | 16 | 68 | 9.7 | 27.4 | 0.20 | 5.89 | 5.87 | 96 | 1013.8 |
| 20260501222602 | 16 | 59 | 9.7 | 27.4 | 0.20 | 5.89 | 5.87 | 96 | 1013.8 |
| 20260501222504 | 16 | 58 | 9.7 | 27.4 | 0.23 | 5.89 | 5.87 | 96 | 1013.9 |
| 20260501222402 | 16 | 56 | 11.3 | 27.4 | 0.23 | 5.89 | 5.87 | 96 | 1013.9 |
| 20260501222305 | 16 | 54 | 12.9 | 27.4 | 0.23 | 5.89 | 5.87 | 96 | 1013.9 |
| 20260501222201 | 16 | 61 | 12.9 | 27.4 | 0.23 | 5.89 | 5.87 | 96 | 1014.0 |
| 20260501222103 | 16 | 78 | 12.9 | 27.4 | 0.23 | 5.89 | 5.87 | 96 | 1014.0 |
| 20260501222003 | 16 | 61 | 9.7 | 22.5 | 0.25 | 5.89 | 5.87 | 96 | 1014.2 |
| 20260501221902 | 16 | 89 | 9.7 | 22.5 | 0.25 | 5.89 | 5.87 | 96 | 1014.2 |
| 20260501221803 | 16 | 51 | 9.7 | 22.5 | 0.25 | 5.89 | 5.87 | 96 | 1014.3 |
| 20260501221702 | 16 | 56 | 9.7 | 22.5 | 0.25 | 5.89 | 5.87 | 96 | 1014.3 |
| 20260501221603 | 16 | 54 | 9.7 | 22.5 | 0.25 | 5.89 | 5.87 | 96 | 1014.5 |
| 20260501221505 | 16 | 51 | 9.7 | 22.5 | 0.28 | 5.89 | 5.87 | 96 | 1014.5 |
| 20260501221403 | 16 | 55 | 9.7 | 22.5 | 0.28 | 5.89 | 5.87 | 96 | 1014.5 |
| 20260501221302 | 16 | 54 | 9.7 | 22.5 | 0.28 | 5.89 | 5.87 | 96 | 1014.5 |
| 20260501221204 | 16 | 32 | 9.7 | 22.5 | 0.28 | 5.89 | 5.87 | 96 | 1014.5 |
| 20260501221102 | 16 | 35 | 9.7 | 22.5 | 0.30 | 5.89 | 5.87 | 96 | 1014.4 |
| 20260501221002 | 16 | 59 | 9.7 | 22.5 | 0.30 | 5.89 | 5.84 | 96 | 1014.4 |
| 20260501220902 | 16 | 28 | 9.7 | 22.5 | 0.28 | 5.89 | 5.84 | 97 | 1014.3 |
| 20260501220803 | 16 | 30 | 11.3 | 22.5 | 0.28 | 5.89 | 5.84 | 97 | 1014.3 |
| 20260501220701 | 16 | 34 | 11.3 | 19.3 | 0.28 | 5.89 | 5.84 | 97 | 1014.2 |
| 20260501220600 | 16 | 52 | 12.9 | 19.3 | 0.30 | 5.89 | 5.84 | 97 | 1014.1 |
| 20260501220459 | 16 | 55 | 12.9 | 19.3 | 0.30 | 5.89 | 5.84 | 97 | 1014.1 |
| 20260501220357 | 16 | 39 | 11.3 | 22.5 | 0.30 | 5.89 | 5.84 | 97 | 1014.2 |
| 20260501220256 | 16 | 20 | 9.7 | 22.5 | 0.30 | 5.89 | 5.84 | 97 | 1014.2 |
| 20260501220155 | 16 | 62 | 8.0 | 22.5 | 0.33 | 5.89 | 5.84 | 97 | 1014.4 |
| 20260501220052 | 16 | 56 | 9.7 | 22.5 | 0.33 | 5.89 | 5.84 | 97 | 1014.4 |
| 20260501215951 | 16 | 38 | 11.3 | 22.5 | 0.36 | 5.54 | 5.84 | 97 | 1014.5 |
| 20260501215849 | 16 | 47 | 11.3 | 22.5 | 0.36 | 5.54 | 5.84 | 97 | 1014.5 |
| 20260501215744 | 16 | 56 | 9.7 | 22.5 | 0.38 | 5.54 | 5.84 | 97 | 1014.5 |
| 20260501215643 | 16 | 16 | 9.7 | 22.5 | 0.38 | 5.54 | 5.82 | 97 | 1014.5 |
| 20260501215541 | 16 | 35 | 11.3 | 22.5 | 0.38 | 5.54 | 5.82 | 97 | 1014.5 |
| 20260501215441 | 16 | 24 | 14.5 | 22.5 | 0.38 | 5.54 | 5.82 | 97 | 1014.4 |
| 20260501215338 | 16 | 1 | 12.9 | 20.9 | 0.41 | 5.54 | 5.82 | 97 | 1014.4 |
| 20260501215238 | 16 | 11 | 12.9 | 20.9 | 0.41 | 5.54 | 5.82 | 97 | 1014.3 |
| 20260501215135 | 16 | 71 | 9.7 | 20.9 | 0.43 | 5.54 | 5.82 | 97 | 1014.3 |
| 20260501215034 | 16 | 52 | 8.0 | 20.9 | 0.43 | 5.54 | 5.82 | 97 | 1014.3 |
| 20260501214932 | 16 | 59 | 8.0 | 20.9 | 0.43 | 5.54 | 5.79 | 97 | 1014.3 |
| 20260501214832 | 16 | 25 | 9.7 | 20.9 | 0.41 | 5.54 | 5.79 | 97 | 1014.3 |
| 20260501214731 | 16 | 44 | 11.3 | 20.9 | 0.43 | 5.54 | 5.79 | 97 | 1014.2 |
| 20260501214631 | 16 | 51 | 11.3 | 20.9 | 0.43 | 5.54 | 5.79 | 97 | 1014.1 |
| 20260501214532 | 16 | 39 | 12.9 | 20.9 | 0.43 | 5.54 | 5.79 | 97 | 1014.1 |
| 20260501214432 | 16 | 20 | 11.3 | 20.9 | 0.43 | 5.54 | 5.79 | 97 | 1014.2 |
| 20260501214332 | 16 | 41 | 9.7 | 17.7 | 0.43 | 5.54 | 5.77 | 97 | 1014.1 |
| 20260501214232 | 16 | 58 | 8.0 | 17.7 | 0.41 | 5.54 | 5.77 | 97 | 1014.2 |
| 20260501214131 | 16 | 59 | 8.0 | 17.7 | 0.41 | 5.54 | 5.77 | 97 | 1014.3 |
| 20260501214032 | 16 | 51 | 6.4 | 17.7 | 0.41 | 5.54 | 5.77 | 97 | 1014.4 |
| 20260501213932 | 16 | 41 | 6.4 | 17.7 | 0.41 | 5.54 | 5.74 | 97 | 1014.6 |
| 20260501213832 | 16 | 51 | 9.7 | 17.7 | 0.41 | 5.54 | 5.74 | 97 | 1014.6 |
| 20260501213731 | 16 | 59 | 9.7 | 17.7 | 0.41 | 5.54 | 5.74 | 97 | 1014.6 |
| 20260501213635 | 16 | 61 | 6.4 | 17.7 | 0.41 | 5.54 | 5.74 | 97 | 1014.7 |
| 20260501213515 | 16 | 56 | 6.4 | 17.7 | 0.41 | 5.54 | 5.71 | 97 | 1014.7 |
| 20260501213413 | 16 | 28 | 8.0 | 17.7 | 0.41 | 5.54 | 5.71 | 97 | 1014.6 |
| 20260501213313 | 16 | 1 | 9.7 | 17.7 | 0.43 | 5.54 | 5.71 | 97 | 1014.6 |
| 20260501213208 | 16 | 39 | 8.0 | 17.7 | 0.46 | 5.54 | 5.69 | 97 | 1014.6 |
| 20260501213105 | 16 | 42 | 8.0 | 17.7 | 0.46 | 5.54 | 5.69 | 97 | 1014.6 |
| 20260501213005 | 16 | 17 | 9.7 | 17.7 | 0.48 | 5.54 | 5.69 | 97 | 1014.6 |
| 20260501212904 | 16 | 71 | 8.0 | 17.7 | 0.48 | 5.54 | 5.69 | 97 | 1014.5 |
| 20260501212804 | 16 | 61 | 8.0 | 16.1 | 0.51 | 5.54 | 5.66 | 97 | 1014.5 |
| 20260501212705 | 16 | 38 | 9.7 | 16.1 | 0.48 | 5.54 | 5.66 | 97 | 1014.5 |
| 20260501212604 | 16 | 42 | 9.7 | 16.1 | 0.51 | 5.54 | 5.64 | 97 | 1014.4 |
| 20260501212505 | 16 | 39 | 8.0 | 19.3 | 0.51 | 5.54 | 5.64 | 97 | 1014.3 |
| 20260501212404 | 16 | 63 | 8.0 | 19.3 | 0.51 | 5.54 | 5.64 | 97 | 1014.2 |
| 20260501212306 | 16 | 80 | 8.0 | 19.3 | 0.51 | 5.54 | 5.64 | 97 | 1014.1 |
| 20260501212205 | 16 | 32 | 9.7 | 19.3 | 0.51 | 5.54 | 5.64 | 97 | 1014.0 |
| 20260501212105 | 16 | 62 | 8.0 | 19.3 | 0.51 | 5.54 | 5.61 | 97 | 1013.9 |
| 20260501212005 | 16 | 75 | 4.8 | 19.3 | 0.48 | 5.54 | 5.61 | 97 | 1013.7 |
| 20260501211904 | 16 | 45 | 6.4 | 24.1 | 0.48 | 5.54 | 5.61 | 97 | 1013.6 |
| 20260501211804 | 16 | 61 | 8.0 | 29.0 | 0.48 | 5.54 | 5.61 | 97 | 1013.5 |
| 20260501211704 | 16 | 61 | 8.0 | 29.0 | 0.51 | 5.54 | 5.61 | 97 | 1013.4 |
| 20260501211604 | 16 | 89 | 9.7 | 29.0 | 0.51 | 5.54 | 5.61 | 97 | 1013.3 |
| 20260501211504 | 16 | 65 | 8.0 | 29.0 | 0.48 | 5.54 | 5.59 | 97 | 1013.4 |
| 20260501211404 | 16 | 66 | 6.4 | 29.0 | 0.48 | 5.54 | 5.59 | 97 | 1013.5 |
| 20260501211304 | 16 | 47 | 6.4 | 29.0 | 0.48 | 5.54 | 5.59 | 97 | 1013.5 |
| 20260501211204 | 16 | 38 | 9.7 | 29.0 | 0.48 | 5.54 | 5.56 | 97 | 1013.4 |
| 20260501211107 | 16 | 23 | 12.9 | 29.0 | 0.46 | 5.54 | 5.56 | 97 | 1013.5 |
| 20260501211005 | 16 | 75 | 14.5 | 29.0 | 0.46 | 5.54 | 5.56 | 97 | 1013.3 |
| 20260501210904 | 16 | 6 | 12.9 | 29.0 | 0.46 | 5.54 | 5.56 | 97 | 1013.2 |
| 20260501210805 | 16 | 23 | 11.3 | 29.0 | 0.46 | 5.54 | 5.56 | 97 | 1013.1 |
| 20260501210705 | 16 | 51 | 11.3 | 29.0 | 0.46 | 5.54 | 5.54 | 97 | 1012.9 |
| 20260501210604 | 16 | 17 | 11.3 | 29.0 | 0.43 | 5.54 | 5.54 | 97 | 1012.9 |
| 20260501210504 | 16 | 59 | 9.7 | 29.0 | 0.43 | 5.54 | 5.54 | 97 | 1012.9 |
| 20260501210405 | 16 | 58 | 9.7 | 29.0 | 0.43 | 5.54 | 5.54 | 97 | 1012.9 |
| 20260501210305 | 16 | 52 | 9.7 | 29.0 | 0.43 | 5.54 | 5.51 | 97 | 1012.9 |
| 20260501210203 | 16 | 48 | 9.7 | 29.0 | 0.41 | 5.54 | 5.51 | 97 | 1012.9 |
| 20260501210106 | 16 | 14 | 12.9 | 29.0 | 0.41 | 5.54 | 5.49 | 97 | 1012.7 |
| 20260501210005 | 16 | 49 | 14.5 | 29.0 | 0.38 | 5.16 | 5.49 | 97 | 1012.6 |
| 20260501205905 | 16 | 21 | 9.7 | 22.5 | 0.38 | 5.16 | 5.46 | 97 | 1012.5 |
| 20260501205805 | 16 | 56 | 9.7 | 22.5 | 0.36 | 5.16 | 5.46 | 97 | 1012.5 |
| 20260501205704 | 16 | 58 | 9.7 | 22.5 | 0.36 | 5.16 | 5.46 | 97 | 1012.5 |
| 20260501205605 | 16 | 44 | 11.3 | 22.5 | 0.36 | 5.16 | 5.44 | 97 | 1012.5 |
| 20260501205503 | 16 | 61 | 11.3 | 22.5 | 0.33 | 5.16 | 5.44 | 97 | 1012.4 |
| 20260501205405 | 16 | 41 | 11.3 | 20.9 | 0.33 | 5.16 | 5.44 | 97 | 1012.5 |
| 20260501205306 | 16 | 59 | 14.5 | 20.9 | 0.30 | 5.16 | 5.41 | 97 | 1012.6 |
| 20260501205203 | 16 | 20 | 12.9 | 20.9 | 0.30 | 5.16 | 5.38 | 97 | 1012.7 |
| 20260501205105 | 16 | 28 | 11.3 | 19.3 | 0.28 | 5.16 | 5.38 | 97 | 1012.9 |
| 20260501205004 | 16 | 59 | 8.0 | 17.7 | 0.28 | 5.16 | 5.38 | 97 | 1013.1 |
| 20260501204903 | 16 | 52 | 8.0 | 16.1 | 0.28 | 5.16 | 5.38 | 97 | 1013.3 |
| 20260501204803 | 16 | 49 | 8.0 | 16.1 | 0.28 | 5.16 | 5.38 | 97 | 1013.5 |
| 20260501204705 | 16 | 45 | 6.4 | 16.1 | 0.25 | 5.16 | 5.36 | 97 | 1013.7 |
| 20260501204603 | 16 | 30 | 8.0 | 16.1 | 0.25 | 5.16 | 5.36 | 97 | 1013.7 |
| 20260501204503 | 16 | 51 | 9.7 | 16.1 | 0.25 | 5.16 | 5.36 | 97 | 1013.8 |
| 20260501204403 | 16 | 21 | 9.7 | 16.1 | 0.25 | 5.16 | 5.36 | 97 | 1013.9 |
| 20260501204304 | 16 | 10 | 6.4 | 16.1 | 0.25 | 5.16 | 5.36 | 97 | 1014.0 |
| 20260501204203 | 16 | 47 | 6.4 | 16.1 | 0.28 | 5.16 | 5.36 | 97 | 1013.9 |
| 20260501204103 | 16 | 0 | 6.4 | 16.1 | 0.28 | 5.16 | 5.36 | 97 | 1013.9 |
| 20260501204005 | 16 | 55 | 6.4 | 17.7 | 0.28 | 5.16 | 5.36 | 97 | 1013.7 |
| 20260501203903 | 16 | 21 | 6.4 | 17.7 | 0.28 | 5.16 | 5.33 | 97 | 1013.7 |
| 20260501203804 | 16 | 42 | 8.0 | 17.7 | 0.25 | 5.16 | 5.33 | 97 | 1013.5 |
| 20260501203704 | 16 | 27 | 9.7 | 17.7 | 0.28 | 5.16 | 5.33 | 97 | 1013.5 |
| 20260501203604 | 16 | 17 | 8.0 | 17.7 | 0.28 | 5.16 | 5.31 | 97 | 1013.6 |
| 20260501203504 | 16 | 56 | 6.4 | 17.7 | 0.28 | 5.16 | 5.28 | 97 | 1013.8 |
| 20260501203404 | 16 | 23 | 8.0 | 17.7 | 0.28 | 5.16 | 5.28 | 97 | 1013.8 |
| 20260501203304 | 16 | 16 | 8.0 | 17.7 | 0.30 | 5.16 | 5.26 | 97 | 1013.8 |
| 20260501203204 | 16 | 58 | 9.7 | 17.7 | 0.28 | 5.16 | 5.23 | 97 | 1013.9 |
| 20260501203104 | 16 | 51 | 12.9 | 17.7 | 0.25 | 5.16 | 5.21 | 97 | 1013.7 |
| 20260501203004 | 16 | 48 | 11.3 | 17.7 | 0.25 | 5.16 | 5.21 | 97 | 1013.7 |
| 20260501202903 | 16 | 21 | 8.0 | 17.7 | 0.25 | 5.16 | 5.18 | 97 | 1013.7 |
| 20260501202803 | 16 | 4 | 8.0 | 16.1 | 0.23 | 5.16 | 5.16 | 97 | 1013.7 |
| 20260501202703 | 16 | 8 | 9.7 | 17.7 | 0.23 | 5.16 | 5.16 | 97 | 1013.8 |
| 20260501202605 | 16 | 14 | 8.0 | 22.5 | 0.20 | 5.16 | 5.13 | 97 | 1013.8 |
| 20260501202503 | 16 | 24 | 6.4 | 22.5 | 0.18 | 5.16 | 5.13 | 97 | 1013.6 |
| 20260501202359 | 16 | 24 | 8.0 | 22.5 | 0.18 | 5.16 | 5.13 | 97 | 1013.5 |
| 20260501202255 | 16 | 13 | 8.0 | 22.5 | 0.18 | 5.16 | 5.13 | 97 | 1013.3 |
| 20260501202155 | 16 | 18 | 8.0 | 22.5 | 0.18 | 5.16 | 5.13 | 97 | 1013.2 |
| 20260501202052 | 16 | 24 | 8.0 | 22.5 | 0.18 | 5.16 | 5.13 | 97 | 1013.0 |
| 20260501201951 | 16 | 14 | 9.7 | 22.5 | 0.18 | 5.16 | 5.13 | 97 | 1013.0 |
| 20260501201850 | 16 | 31 | 11.3 | 22.5 | 0.18 | 5.16 | 5.13 | 97 | 1013.0 |
| 20260501201748 | 16 | 48 | 12.9 | 22.5 | 0.18 | 5.16 | 5.11 | 97 | 1012.9 |
| 20260501201647 | 16 | 21 | 12.9 | 22.5 | 0.15 | 5.16 | 5.11 | 97 | 1012.7 |
| 20260501201546 | 16 | 24 | 12.9 | 22.5 | 0.15 | 5.16 | 5.11 | 97 | 1012.7 |
| 20260501201444 | 16 | 37 | 12.9 | 19.3 | 0.15 | 5.16 | 5.11 | 97 | 1012.6 |
| 20260501201343 | 16 | 47 | 9.7 | 19.3 | 0.15 | 5.16 | 5.11 | 97 | 1012.6 |
| 20260501201239 | 16 | 68 | 9.7 | 14.5 | 0.15 | 5.16 | 5.11 | 97 | 1012.6 |
| 20260501201138 | 16 | 51 | 6.4 | 14.5 | 0.15 | 5.16 | 5.11 | 97 | 1012.7 |
| 20260501201037 | 16 | 63 | 6.4 | 14.5 | 0.15 | 5.16 | 5.11 | 97 | 1012.7 |
| 20260501200931 | 16 | 55 | 6.4 | 14.5 | 0.15 | 5.16 | 5.11 | 97 | 1012.8 |
| 20260501200831 | 16 | 56 | 6.4 | 14.5 | 0.15 | 5.16 | 5.11 | 97 | 1012.8 |
| 20260501200732 | 16 | 51 | 6.4 | 14.5 | 0.15 | 5.16 | 5.11 | 97 | 1012.9 |
| 20260501200631 | 16 | 55 | 6.4 | 14.5 | 0.15 | 5.16 | 5.11 | 97 | 1013.0 |
| 20260501200529 | 16 | 45 | 6.4 | 14.5 | 0.15 | 5.16 | 5.11 | 97 | 1013.1 |
| 20260501200428 | 16 | 75 | 6.4 | 14.5 | 0.15 | 5.16 | 5.11 | 97 | 1013.0 |
| 20260501200326 | 16 | 54 | 8.0 | 14.5 | 0.18 | 5.16 | 5.11 | 97 | 1012.9 |
| 20260501200224 | 16 | 75 | 8.0 | 14.5 | 0.18 | 5.16 | 5.11 | 97 | 1012.9 |
| 20260501200122 | 16 | 24 | 6.4 | 14.5 | 0.18 | 5.16 | 5.11 | 97 | 1012.7 |
| 20260501200021 | 16 | 62 | 6.4 | 16.1 | 0.18 | 4.98 | 5.11 | 97 | 1012.6 |
| 20260501195920 | 16 | 73 | 6.4 | 16.1 | 0.18 | 4.98 | 5.11 | 97 | 1012.6 |
| 20260501195818 | 16 | 62 | 8.0 | 16.1 | 0.18 | 4.98 | 5.11 | 97 | 1012.6 |
| 20260501195715 | 16 | 35 | 6.4 | 16.1 | 0.20 | 4.98 | 5.11 | 97 | 1012.7 |
| 20260501195615 | 16 | 39 | 6.4 | 16.1 | 0.23 | 4.98 | 5.11 | 97 | 1012.7 |
| 20260501195514 | 16 | 45 | 4.8 | 16.1 | 0.25 | 4.98 | 5.11 | 97 | 1012.7 |
| 20260501195410 | 16 | 30 | 8.0 | 16.1 | 0.30 | 4.98 | 5.11 | 97 | 1012.7 |
| 20260501195307 | 16 | 48 | 9.7 | 16.1 | 0.30 | 4.98 | 5.11 | 97 | 1012.6 |
| 20260501195205 | 16 | 20 | 8.0 | 16.1 | 0.30 | 4.98 | 5.11 | 97 | 1012.5 |
| 20260501195104 | 16 | 51 | 6.4 | 16.1 | 0.30 | 4.98 | 5.11 | 97 | 1012.5 |
| 20260501195004 | 16 | 39 | 4.8 | 16.1 | 0.30 | 4.98 | 5.11 | 97 | 1012.5 |
| 20260501194905 | 16 | 38 | 4.8 | 16.1 | 0.33 | 4.98 | 5.11 | 97 | 1012.6 |
| 20260501194803 | 16 | 31 | 6.4 | 16.1 | 0.33 | 4.98 | 5.11 | 97 | 1012.6 |
| 20260501194703 | 16 | 39 | 4.8 | 16.1 | 0.33 | 4.98 | 5.11 | 97 | 1012.6 |
| 20260501194603 | 16 | 38 | 4.8 | 16.1 | 0.33 | 4.98 | 5.11 | 97 | 1012.5 |
| 20260501194505 | 16 | 61 | 8.0 | 16.1 | 0.33 | 4.98 | 5.11 | 97 | 1012.3 |
| 20260501194403 | 16 | 54 | 9.7 | 16.1 | 0.36 | 4.98 | 5.11 | 97 | 1012.2 |
| 20260501194302 | 16 | 20 | 8.0 | 16.1 | 0.36 | 4.98 | 5.08 | 97 | 1012.1 |
| 20260501194202 | 16 | 10 | 6.4 | 11.3 | 0.33 | 4.98 | 5.08 | 97 | 1012.3 |
| 20260501194104 | 16 | 27 | 4.8 | 11.3 | 0.36 | 4.98 | 5.08 | 97 | 1012.4 |
| 20260501194002 | 16 | 54 | 3.2 | 11.3 | 0.36 | 4.98 | 5.08 | 97 | 1012.5 |
| 20260501193902 | 16 | 54 | 3.2 | 11.3 | 0.36 | 4.98 | 5.08 | 97 | 1012.5 |
| 20260501193804 | 16 | 58 | 4.8 | 14.5 | 0.38 | 4.98 | 5.05 | 97 | 1012.5 |
| 20260501193702 | 16 | 59 | 4.8 | 14.5 | 0.36 | 4.98 | 5.05 | 97 | 1012.4 |
| 20260501193602 | 16 | 32 | 4.8 | 14.5 | 0.36 | 4.98 | 5.03 | 97 | 1012.5 |
| 20260501193505 | 16 | 10 | 4.8 | 14.5 | 0.33 | 4.98 | 5.00 | 97 | 1012.5 |
| 20260501193352 | 16 | 14 | 6.4 | 14.5 | 0.30 | 4.98 | 4.98 | 97 | 1012.6 |
| 20260501193251 | 16 | 14 | 6.4 | 14.5 | 0.28 | 4.98 | 4.98 | 97 | 1012.6 |
| 20260501193148 | 16 | 8 | 4.8 | 14.5 | 0.28 | 4.98 | 4.98 | 97 | 1012.3 |
| 20260501193048 | 16 | 52 | 6.4 | 14.5 | 0.25 | 4.98 | 4.95 | 97 | 1012.2 |
| 20260501192947 | 16 | 47 | 8.0 | 14.5 | 0.28 | 4.98 | 4.95 | 97 | 1012.2 |
| 20260501192845 | 16 | 44 | 6.4 | 11.3 | 0.28 | 4.98 | 4.95 | 97 | 1012.3 |
| 20260501192743 | 16 | 35 | 6.4 | 11.3 | 0.30 | 4.98 | 4.95 | 97 | 1012.5 |
| 20260501192642 | 16 | 42 | 8.0 | 11.3 | 0.33 | 4.98 | 4.95 | 97 | 1012.7 |
| 20260501192541 | 16 | 28 | 6.4 | 11.3 | 0.36 | 4.98 | 4.95 | 97 | 1012.9 |
| 20260501192440 | 16 | 0 | 3.2 | 14.5 | 0.38 | 4.98 | 4.95 | 97 | 1012.8 |
| 20260501192337 | 16 | 48 | 3.2 | 14.5 | 0.41 | 4.98 | 4.95 | 97 | 1012.9 |
| 20260501192236 | 16 | 48 | 3.2 | 14.5 | 0.43 | 4.98 | 4.95 | 97 | 1012.8 |
| 20260501192135 | 16 | 48 | 4.8 | 14.5 | 0.46 | 4.98 | 4.95 | 97 | 1012.8 |
| 20260501192034 | 16 | 51 | 6.4 | 14.5 | 0.51 | 4.98 | 4.95 | 97 | 1012.8 |
| 20260501191933 | 16 | 48 | 8.0 | 14.5 | 0.53 | 4.98 | 4.95 | 97 | 1012.8 |
| 20260501191830 | 16 | 1 | 8.0 | 14.5 | 0.56 | 4.98 | 4.95 | 97 | 1012.9 |
| 20260501191728 | 16 | 13 | 6.4 | 17.7 | 0.56 | 4.98 | 4.95 | 97 | 1012.9 |
| 20260501191627 | 16 | 52 | 6.4 | 17.7 | 0.56 | 4.98 | 4.95 | 97 | 1012.8 |
| 20260501191524 | 16 | 51 | 8.0 | 17.7 | 0.56 | 4.98 | 4.95 | 97 | 1012.8 |
| 20260501191425 | 16 | 45 | 6.4 | 17.7 | 0.56 | 4.98 | 4.95 | 97 | 1012.9 |
| 20260501191322 | 16 | 20 | 6.4 | 17.7 | 0.56 | 4.98 | 4.95 | 97 | 1012.8 |
| 20260501191222 | 16 | 17 | 6.4 | 17.7 | 0.58 | 4.98 | 4.95 | 97 | 1012.6 |
| 20260501191120 | 16 | 61 | 8.0 | 17.7 | 0.58 | 4.98 | 4.95 | 97 | 1012.3 |
| 20260501191018 | 16 | 52 | 8.0 | 17.7 | 0.58 | 4.98 | 4.95 | 97 | 1012.0 |
| 20260501190916 | 16 | 65 | 9.7 | 17.7 | 0.58 | 4.98 | 4.95 | 97 | 1011.8 |
| 20260501190815 | 16 | 86 | 9.7 | 17.7 | 0.61 | 4.98 | 4.95 | 97 | 1011.8 |
| 20260501190715 | 16 | 56 | 8.0 | 14.5 | 0.61 | 4.98 | 4.95 | 97 | 1012.0 |
| 20260501190612 | 16 | 66 | 8.0 | 14.5 | 0.61 | 4.98 | 4.95 | 97 | 1012.2 |
| 20260501190510 | 16 | 47 | 6.4 | 14.5 | 0.61 | 4.98 | 4.95 | 97 | 1012.4 |
| 20260501190410 | 16 | 18 | 3.2 | 9.7 | 0.64 | 4.98 | 4.93 | 97 | 1012.5 |
| 20260501190307 | 16 | 65 | 3.2 | 6.4 | 0.61 | 4.98 | 4.93 | 97 | 1012.7 |
| 20260501190207 | 16 | 65 | 3.2 | 6.4 | 0.64 | 4.98 | 4.93 | 97 | 1012.7 |